Observation data for Lake Alan Henry on 05/27/2019      Previous  Date  Next       Current Mesonet Observations  Soil Data  Daily Summary Page  Observations in Plain Language
KAHS 270500Z 20005KT 23/18 A2986 RMK A01 T02280184  RH  076%=      5-min Rain = 0
KAHS 270501Z 19005KT 23/18 A2986 RMK A01 T02270184  RH  076%=      5-min Rain = 0
KAHS 270502Z 20006KT 23/18 A2986 RMK A01 T02270184  RH  077%=      5-min Rain = 0
KAHS 270503Z 21006KT 23/18 A2986 RMK A01 T02280184  RH  077%=      5-min Rain = 0
KAHS 270504Z 20006KT 23/18 A2986 RMK A01 T02290184  RH  076%=      5-min Rain = 0
KAHS 270505Z 20005KT 23/18 A2986 RMK A01 T02280184  RH  076%=      5-min Rain = 0
KAHS 270506Z 19006KT 23/18 A2986 RMK A01 T02270184  RH  077%=      5-min Rain = 0
KAHS 270507Z 20006KT 23/19 A2986 RMK A01 T02280185  RH  077%=      5-min Rain = 0
KAHS 270508Z 20006KT 23/19 A2986 RMK A01 T02290185  RH  076%=      5-min Rain = 0
KAHS 270509Z 20005KT 23/18 A2986 RMK A01 T02300184  RH  075%=      5-min Rain = 0
KAHS 270510Z 20004KT 23/19 A2986 RMK A01 T02300185  RH  076%=      5-min Rain = 0
KAHS 270511Z 19005KT 23/18 A2986 RMK A01 T02280184  RH  076%=      5-min Rain = 0
KAHS 270512Z 21004KT 23/19 A2986 RMK A01 T02280185  RH  076%=      5-min Rain = 0
KAHS 270513Z 20004KT 23/19 A2986 RMK A01 T02270185  RH  077%=      5-min Rain = 0
KAHS 270514Z 19005KT 23/19 A2987 RMK A01 T02270185  RH  077%=      5-min Rain = 0
KAHS 270515Z 19006KT 23/18 A2986 RMK A01 T02270184  RH  077%=      5-min Rain = 0
KAHS 270516Z 20005KT 23/19 A2986 RMK A01 T02270185  RH  077%=      5-min Rain = 0
KAHS 270517Z 20007KT 23/19 A2986 RMK A01 T02280185  RH  077%=      5-min Rain = 0
KAHS 270518Z 20007KT 23/19 A2986 RMK A01 T02290185  RH  076%=      5-min Rain = 0
KAHS 270519Z 20007KT 23/19 A2986 RMK A01 T02300185  RH  076%=      5-min Rain = 0
KAHS 270520Z 20006KT 23/19 A2986 RMK A01 T02310185  RH  076%=      5-min Rain = 0
KAHS 270521Z 20006KT 23/19 A2986 RMK A01 T02300185  RH  076%=      5-min Rain = 0
KAHS 270522Z 19008KT 23/19 A2986 RMK A01 T02290185  RH  076%=      5-min Rain = 0
KAHS 270523Z 19007KT 23/19 A2986 RMK A01 T02280185  RH  076%=      5-min Rain = 0
KAHS 270524Z 19006KT 23/19 A2986 RMK A01 T02290185  RH  076%=      5-min Rain = 0
KAHS 270525Z 19004KT 23/19 A2986 RMK A01 T02280185  RH  076%=      5-min Rain = 0
KAHS 270526Z 18005KT 23/19 A2986 RMK A01 T02270185  RH  077%=      5-min Rain = 0
KAHS 270527Z 18009KT 23/19 A2986 RMK A01 T02270185  RH  077%=      5-min Rain = 0
KAHS 270528Z 19007KT 23/19 A2986 RMK A01 T02290185  RH  077%=      5-min Rain = 0
KAHS 270529Z 19006KT 23/19 A2986 RMK A01 T02290185  RH  076%=      5-min Rain = 0
KAHS 270530Z 19006KT 23/19 A2986 RMK A01 T02280185  RH  076%=      5-min Rain = 0
KAHS 270531Z 19008KT 23/19 A2986 RMK A01 T02280185  RH  077%=      5-min Rain = 0
KAHS 270532Z 19010KT 23/19 A2986 RMK A01 T02290185  RH  077%=      5-min Rain = 0
KAHS 270533Z 18010KT 23/19 A2986 RMK A01 T02300185  RH  076%=      5-min Rain = 0
KAHS 270534Z 19009KT 23/19 A2986 RMK A01 T02300185  RH  076%=      5-min Rain = 0
KAHS 270535Z 18007KT 23/19 A2986 RMK A01 T02300185  RH  076%=      5-min Rain = 0
KAHS 270536Z 19007KT 23/19 A2986 RMK A01 T02300185  RH  076%=      5-min Rain = 0
KAHS 270537Z 18007KT 23/19 A2986 RMK A01 T02290185  RH  076%=      5-min Rain = 0
KAHS 270538Z 18007KT 23/19 A2986 RMK A01 T02280185  RH  077%=      5-min Rain = 0
KAHS 270539Z 18008KT 23/19 A2986 RMK A01 T02280185  RH  077%=      5-min Rain = 0
KAHS 270540Z 18006KT 23/19 A2985 RMK A01 T02280186  RH  077%=      5-min Rain = 0
KAHS 270541Z 18005KT 23/19 A2985 RMK A01 T02280185  RH  077%=      5-min Rain = 0
KAHS 270542Z 17007KT 23/19 A2985 RMK A01 T02270185  RH  077%=      5-min Rain = 0
KAHS 270543Z 17009KT 23/19 A2985 RMK A01 T02270185  RH  077%=      5-min Rain = 0
KAHS 270544Z 17008KT 23/19 A2985 RMK A01 T02280186  RH  077%=      5-min Rain = 0
KAHS 270545Z 17008KT 23/19 A2985 RMK A01 T02280186  RH  077%=      5-min Rain = 0
KAHS 270546Z 17008KT 23/19 A2985 RMK A01 T02280186  RH  077%=      5-min Rain = 0
KAHS 270547Z 18008KT 23/19 A2985 RMK A01 T02280185  RH  077%=      5-min Rain = 0
KAHS 270548Z 18008KT 23/19 A2985 RMK A01 T02280186  RH  077%=      5-min Rain = 0
KAHS 270549Z 18007KT 23/19 A2985 RMK A01 T02280185  RH  077%=      5-min Rain = 0
KAHS 270550Z 18005KT 23/19 A2985 RMK A01 T02280185  RH  077%=      5-min Rain = 0
KAHS 270551Z 19007KT 23/19 A2985 RMK A01 T02280186  RH  077%=      5-min Rain = 0
KAHS 270552Z 17007KT 23/19 A2985 RMK A01 T02280185  RH  077%=      5-min Rain = 0
KAHS 270553Z 18005KT 23/19 A2985 RMK A01 T02280186  RH  077%=      5-min Rain = 0
KAHS 270554Z 18006KT 23/19 A2985 RMK A01 T02270185  RH  077%=      5-min Rain = 0
KAHS 270555Z 17006KT 23/19 A2985 RMK A01 T02270185  RH  077%=      5-min Rain = 0
KAHS 270556Z 17006KT 23/19 A2985 RMK A01 T02260185  RH  078%=      5-min Rain = 0
KAHS 270557Z 17006KT 23/19 A2985 RMK A01 T02260186  RH  078%=      5-min Rain = 0
KAHS 270558Z 18006KT 23/19 A2985 RMK A01 T02260186  RH  078%=      5-min Rain = 0
KAHS 270559Z 18005KT 23/19 A2985 RMK A01 T02270186  RH  078%=      5-min Rain = 0
KAHS 270600Z 17005KT 23/19 A2985 RMK A01 T02260185  RH  078%=      5-min Rain = 0
KAHS 270601Z 18005KT 23/19 A2985 RMK A01 T02250185  RH  078%=      5-min Rain = 0
KAHS 270602Z 19004KT 23/19 A2985 RMK A01 T02250186  RH  078%=      5-min Rain = 0
KAHS 270603Z 18005KT 22/19 A2985 RMK A01 T02240185  RH  078%=      5-min Rain = 0
KAHS 270604Z 19005KT 23/19 A2985 RMK A01 T02250185  RH  078%=      5-min Rain = 0
KAHS 270605Z 18004KT 23/19 A2985 RMK A01 T02250185  RH  078%=      5-min Rain = 0
KAHS 270606Z 20004KT 22/19 A2985 RMK A01 T02240185  RH  079%=      5-min Rain = 0
KAHS 270607Z 20005KT 22/19 A2985 RMK A01 T02240186  RH  079%=      5-min Rain = 0
KAHS 270608Z 20005G11KT 23/19 A2985 RMK A01 T02250186  RH  079%=      5-min Rain = 0
KAHS 270609Z 19005KT 23/19 A2985 RMK A01 T02250186  RH  078%=      5-min Rain = 0
KAHS 270610Z 21005KT 23/19 A2985 RMK A01 T02260186  RH  078%=      5-min Rain = 0
KAHS 270611Z 20005KT 23/19 A2985 RMK A01 T02260186  RH  078%=      5-min Rain = 0
KAHS 270612Z 18006KT 23/19 A2985 RMK A01 T02260185  RH  078%=      5-min Rain = 0
KAHS 270613Z 19007KT 23/19 A2985 RMK A01 T02250185  RH  078%=      5-min Rain = 0
KAHS 270614Z 20007KT 23/19 A2985 RMK A01 T02260186  RH  078%=      5-min Rain = 0
KAHS 270615Z 21004KT 23/19 A2985 RMK A01 T02260186  RH  078%=      5-min Rain = 0
KAHS 270616Z 20004KT 23/19 A2985 RMK A01 T02250186  RH  078%=      5-min Rain = 0
KAHS 270617Z 19007KT 23/19 A2985 RMK A01 T02250186  RH  079%=      5-min Rain = 0
KAHS 270618Z 20006KT 23/19 A2985 RMK A01 T02260186  RH  078%=      5-min Rain = 0
KAHS 270619Z 20006KT 23/19 A2985 RMK A01 T02260186  RH  078%=      5-min Rain = 0
KAHS 270620Z 20007KT 23/19 A2984 RMK A01 T02260186  RH  078%=      5-min Rain = 0
KAHS 270621Z 20007KT 23/19 A2984 RMK A01 T02260186  RH  078%=      5-min Rain = 0
KAHS 270622Z 20007KT 23/19 A2984 RMK A01 T02260186  RH  078%=      5-min Rain = 0
KAHS 270623Z 20007KT 23/19 A2984 RMK A01 T02270186  RH  078%=      5-min Rain = 0
KAHS 270624Z 21008KT 23/19 A2984 RMK A01 T02270186  RH  078%=      5-min Rain = 0
KAHS 270625Z 20007KT 23/19 A2984 RMK A01 T02270186  RH  078%=      5-min Rain = 0
KAHS 270626Z 19007KT 23/19 A2984 RMK A01 T02270186  RH  078%=      5-min Rain = 0
KAHS 270627Z 19006KT 23/19 A2984 RMK A01 T02270186  RH  078%=      5-min Rain = 0
KAHS 270628Z 21004KT 23/19 A2984 RMK A01 T02270186  RH  078%=      5-min Rain = 0
KAHS 270629Z 19007KT 23/19 A2984 RMK A01 T02260186  RH  078%=      5-min Rain = 0
KAHS 270630Z 21004KT 23/19 A2984 RMK A01 T02270186  RH  078%=      5-min Rain = 0
KAHS 270631Z 21007KT 23/19 A2985 RMK A01 T02260186  RH  078%=      5-min Rain = 0
KAHS 270632Z 20007KT 23/19 A2984 RMK A01 T02270186  RH  078%=      5-min Rain = 0
KAHS 270633Z 20006KT 23/19 A2984 RMK A01 T02270186  RH  078%=      5-min Rain = 0
KAHS 270634Z 20006KT 23/19 A2984 RMK A01 T02270186  RH  078%=      5-min Rain = 0
KAHS 270635Z 20006KT 23/19 A2984 RMK A01 T02290187  RH  077%=      5-min Rain = 0
KAHS 270636Z 19008KT 23/19 A2984 RMK A01 T02290186  RH  077%=      5-min Rain = 0
KAHS 270637Z 21008KT 23/19 A2984 RMK A01 T02300187  RH  077%=      5-min Rain = 0
KAHS 270638Z 21006KT 23/19 A2984 RMK A01 T02300186  RH  076%=      5-min Rain = 0
KAHS 270639Z 18005KT 23/19 A2984 RMK A01 T02290186  RH  077%=      5-min Rain = 0
KAHS 270640Z 20005KT 23/19 A2984 RMK A01 T02290186  RH  077%=      5-min Rain = 0
KAHS 270641Z 19005KT 23/19 A2984 RMK A01 T02280186  RH  077%=      5-min Rain = 0
KAHS 270642Z 20005KT 23/19 A2984 RMK A01 T02280186  RH  077%=      5-min Rain = 0
KAHS 270643Z 20005KT 23/19 A2984 RMK A01 T02270186  RH  077%=      5-min Rain = 0
KAHS 270644Z 20006KT 23/19 A2984 RMK A01 T02270186  RH  078%=      5-min Rain = 0
KAHS 270645Z 20007KT 23/19 A2984 RMK A01 T02260186  RH  078%=      5-min Rain = 0
KAHS 270646Z 21009KT 23/19 A2984 RMK A01 T02260186  RH  078%=      5-min Rain = 0
KAHS 270647Z 20009KT 23/19 A2984 RMK A01 T02260186  RH  078%=      5-min Rain = 0
KAHS 270648Z 19008KT 23/19 A2984 RMK A01 T02260186  RH  078%=      5-min Rain = 0
KAHS 270649Z 19009KT 23/19 A2984 RMK A01 T02260186  RH  078%=      5-min Rain = 0
KAHS 270650Z 20008KT 23/19 A2984 RMK A01 T02260187  RH  078%=      5-min Rain = 0
KAHS 270651Z 18009KT 23/19 A2984 RMK A01 T02270186  RH  078%=      5-min Rain = 0
KAHS 270652Z 18006KT 23/19 A2984 RMK A01 T02270186  RH  078%=      5-min Rain = 0
KAHS 270653Z 20006KT 23/19 A2984 RMK A01 T02260186  RH  078%=      5-min Rain = 0
KAHS 270654Z 20009KT 23/19 A2984 RMK A01 T02260186  RH  078%=      5-min Rain = 0
KAHS 270655Z 20010KT 23/19 A2984 RMK A01 T02260187  RH  078%=      5-min Rain = 0
KAHS 270656Z 19007KT 23/19 A2984 RMK A01 T02270186  RH  078%=      5-min Rain = 0
KAHS 270657Z 20008KT 23/19 A2984 RMK A01 T02270186  RH  078%=      5-min Rain = 0
KAHS 270658Z 19008KT 23/19 A2984 RMK A01 T02270186  RH  078%=      5-min Rain = 0
KAHS 270659Z 19006KT 23/19 A2984 RMK A01 T02260186  RH  078%=      5-min Rain = 0
KAHS 270700Z 20005KT 23/19 A2984 RMK A01 T02250187  RH  079%=      5-min Rain = 0
KAHS 270701Z 20005KT 23/19 A2984 RMK A01 T02250186  RH  079%=      5-min Rain = 0
KAHS 270702Z 20005KT 22/19 A2984 RMK A01 T02240186  RH  079%=      5-min Rain = 0
KAHS 270703Z 19005KT 22/19 A2984 RMK A01 T02240187  RH  080%=      5-min Rain = 0
KAHS 270704Z 20004KT 22/19 A2984 RMK A01 T02240186  RH  079%=      5-min Rain = 0
KAHS 270705Z 20006KT 22/19 A2984 RMK A01 T02230186  RH  080%=      5-min Rain = 0
KAHS 270706Z 21005KT 22/19 A2984 RMK A01 T02230186  RH  080%=      5-min Rain = 0
KAHS 270707Z 22005KT 22/19 A2984 RMK A01 T02220186  RH  080%=      5-min Rain = 0
KAHS 270708Z 21009KT 22/19 A2984 RMK A01 T02230187  RH  080%=      5-min Rain = 0
KAHS 270709Z 16007KT 22/19 A2984 RMK A01 T02240187  RH  079%=      5-min Rain = 0
KAHS 270710Z 18011KT 23/19 A2984 RMK A01 T02260187  RH  079%=      5-min Rain = 0
KAHS 270711Z 19008KT 23/19 A2984 RMK A01 T02260186  RH  078%=      5-min Rain = 0
KAHS 270712Z 19009KT 23/19 A2984 RMK A01 T02270187  RH  078%=      5-min Rain = 0
KAHS 270713Z 19009KT 23/19 A2984 RMK A01 T02280187  RH  077%=      5-min Rain = 0
KAHS 270714Z 19008KT 23/19 A2983 RMK A01 T02270187  RH  078%=      5-min Rain = 0
KAHS 270715Z 19008KT 23/19 A2984 RMK A01 T02270187  RH  078%=      5-min Rain = 0
KAHS 270716Z 21008KT 23/19 A2984 RMK A01 T02270187  RH  078%=      5-min Rain = 0
KAHS 270717Z 20007KT 23/19 A2984 RMK A01 T02270187  RH  078%=      5-min Rain = 0
KAHS 270718Z 21006KT 23/19 A2984 RMK A01 T02270186  RH  078%=      5-min Rain = 0
KAHS 270719Z 20009G14KT 23/19 A2984 RMK A01 T02260187  RH  078%=      5-min Rain = 0
KAHS 270720Z 21010KT 23/19 A2984 RMK A01 T02270187  RH  078%=      5-min Rain = 0
KAHS 270721Z 20007KT 23/19 A2984 RMK A01 T02270187  RH  078%=      5-min Rain = 0
KAHS 270722Z 18010KT 23/19 A2984 RMK A01 T02270186  RH  078%=      5-min Rain = 0
KAHS 270723Z 19008KT 23/19 A2984 RMK A01 T02260187  RH  078%=      5-min Rain = 0
KAHS 270724Z 20007KT 23/19 A2984 RMK A01 T02260187  RH  079%=      5-min Rain = 0
KAHS 270725Z 21009KT 23/19 A2984 RMK A01 T02260187  RH  078%=      5-min Rain = 0
KAHS 270726Z 21008KT 23/19 A2984 RMK A01 T02260187  RH  078%=      5-min Rain = 0
KAHS 270727Z 21006KT 23/19 A2984 RMK A01 T02270187  RH  078%=      5-min Rain = 0
KAHS 270728Z 20007KT 23/19 A2984 RMK A01 T02270186  RH  078%=      5-min Rain = 0
KAHS 270729Z 20008KT 23/19 A2984 RMK A01 T02250186  RH  079%=      5-min Rain = 0
KAHS 270730Z 21007KT 22/19 A2984 RMK A01 T02240187  RH  079%=      5-min Rain = 0
KAHS 270731Z 20006G11KT 22/19 A2984 RMK A01 T02240187  RH  079%=      5-min Rain = 0
KAHS 270732Z 20008KT 22/19 A2984 RMK A01 T02240187  RH  079%=      5-min Rain = 0
KAHS 270733Z 20008KT 22/19 A2984 RMK A01 T02240187  RH  079%=      5-min Rain = 0
KAHS 270734Z 20006KT 22/19 A2984 RMK A01 T02240187  RH  079%=      5-min Rain = 0
KAHS 270735Z 22009KT 22/19 A2984 RMK A01 T02240187  RH  079%=      5-min Rain = 0
KAHS 270736Z 23009KT 22/19 A2984 RMK A01 T02240187  RH  080%=      5-min Rain = 0
KAHS 270737Z 23008KT 22/19 A2985 RMK A01 T02240187  RH  080%=      5-min Rain = 0
KAHS 270738Z 24009KT 22/19 A2985 RMK A01 T02230187  RH  080%=      5-min Rain = 0
KAHS 270739Z 24011KT 22/19 A2986 RMK A01 T02220187  RH  080%=      5-min Rain = 0
KAHS 270740Z 25013KT 22/19 A2986 RMK A01 T02230188  RH  080%=      5-min Rain = 0
KAHS 270741Z 25012KT 22/19 A2987 RMK A01 T02240187  RH  080%=      5-min Rain = 0
KAHS 270742Z 25012KT 22/19 A2987 RMK A01 T02240187  RH  080%=      5-min Rain = 0
KAHS 270743Z 24013KT 23/19 A2987 RMK A01 T02250188  RH  080%=      5-min Rain = 0
KAHS 270744Z 23007KT 23/19 A2987 RMK A01 T02260187  RH  079%=      5-min Rain = 0
KAHS 270745Z 24006KT 23/19 A2987 RMK A01 T02250187  RH  079%=      5-min Rain = 0
KAHS 270746Z 24007KT 23/19 A2987 RMK A01 T02250187  RH  079%=      5-min Rain = 0
KAHS 270747Z 23008KT 22/19 A2987 RMK A01 T02240187  RH  080%=      5-min Rain = 0
KAHS 270748Z 24010KT 22/19 A2986 RMK A01 T02240188  RH  080%=      5-min Rain = 0
KAHS 270749Z 23009KT 23/19 A2986 RMK A01 T02250187  RH  079%=      5-min Rain = 0
KAHS 270750Z 23010KT 23/19 A2986 RMK A01 T02250187  RH  079%=      5-min Rain = 0
KAHS 270751Z 23009KT 23/19 A2986 RMK A01 T02260187  RH  079%=      5-min Rain = 0
KAHS 270752Z 21008KT 23/19 A2986 RMK A01 T02260187  RH  079%=      5-min Rain = 0
KAHS 270753Z 22008KT 23/19 A2986 RMK A01 T02260187  RH  079%=      5-min Rain = 0
KAHS 270754Z 22008KT 23/19 A2986 RMK A01 T02260187  RH  079%=      5-min Rain = 0
KAHS 270755Z 22008KT 23/19 A2986 RMK A01 T02260187  RH  079%=      5-min Rain = 0
KAHS 270756Z 21007KT 23/19 A2986 RMK A01 T02260187  RH  079%=      5-min Rain = 0
KAHS 270757Z 22006KT 23/19 A2985 RMK A01 T02260187  RH  079%=      5-min Rain = 0
KAHS 270758Z 22006KT 23/19 A2985 RMK A01 T02260187  RH  079%=      5-min Rain = 0
KAHS 270759Z 22005KT 23/19 A2985 RMK A01 T02260187  RH  079%=      5-min Rain = 0
KAHS 270800Z 22006KT 23/19 A2986 RMK A01 T02260187  RH  079%=      5-min Rain = 0
KAHS 270801Z 23008KT 23/19 A2986 RMK A01 T02260187  RH  079%=      5-min Rain = 0
KAHS 270802Z 23010KT 23/19 A2986 RMK A01 T02270188  RH  079%=      5-min Rain = 0
KAHS 270803Z 23010G15KT 23/19 A2986 RMK A01 T02270188  RH  078%=      5-min Rain = 0
KAHS 270804Z 25006KT 23/19 A2986 RMK A01 T02280187  RH  078%=      5-min Rain = 0
KAHS 270805Z 25007KT 23/19 A2986 RMK A01 T02270188  RH  078%=      5-min Rain = 0
KAHS 270806Z 24007KT 23/19 A2986 RMK A01 T02270188  RH  079%=      5-min Rain = 0
KAHS 270807Z 25007KT 23/19 A2986 RMK A01 T02260188  RH  079%=      5-min Rain = 0
KAHS 270808Z 25008KT 23/19 A2986 RMK A01 T02260188  RH  079%=      5-min Rain = 0
KAHS 270809Z 25007KT 23/19 A2987 RMK A01 T02260188  RH  079%=      5-min Rain = 0
KAHS 270810Z 26008KT 23/19 A2987 RMK A01 T02250188  RH  079%=      5-min Rain = 0
KAHS 270811Z 25008KT 23/19 A2987 RMK A01 T02250188  RH  079%=      5-min Rain = 0
KAHS 270812Z 26007KT 23/19 A2987 RMK A01 T02260187  RH  079%=      5-min Rain = 0
KAHS 270813Z 25008KT 23/19 A2987 RMK A01 T02250187  RH  079%=      5-min Rain = 0
KAHS 270814Z 25007KT 23/19 A2987 RMK A01 T02250188  RH  079%=      5-min Rain = 0
KAHS 270815Z 25007KT 22/19 A2987 RMK A01 T02240187  RH  080%=      5-min Rain = 0
KAHS 270816Z 24009KT 22/19 A2987 RMK A01 T02240188  RH  080%=      5-min Rain = 0
KAHS 270817Z 23007KT 22/19 A2987 RMK A01 T02240188  RH  080%=      5-min Rain = 0
KAHS 270818Z 24006KT 22/19 A2986 RMK A01 T02240187  RH  080%=      5-min Rain = 0
KAHS 270819Z 23006KT 22/19 A2986 RMK A01 T02230187  RH  080%=      5-min Rain = 0
KAHS 270820Z 24006KT 22/19 A2986 RMK A01 T02220188  RH  081%=      5-min Rain = 0
KAHS 270821Z 23007KT 22/19 A2987 RMK A01 T02220188  RH  081%=      5-min Rain = 0
KAHS 270822Z 23007KT 22/19 A2987 RMK A01 T02220187  RH  081%=      5-min Rain = 0
KAHS 270823Z 23007KT 22/19 A2987 RMK A01 T02210187  RH  081%=      5-min Rain = 0
KAHS 270824Z 22007KT 22/19 A2986 RMK A01 T02210187  RH  081%=      5-min Rain = 0
KAHS 270825Z 22009KT 22/19 A2986 RMK A01 T02210187  RH  081%=      5-min Rain = 0
KAHS 270826Z 22008KT 22/19 A2986 RMK A01 T02220188  RH  081%=      5-min Rain = 0
KAHS 270827Z 22008KT 22/19 A2986 RMK A01 T02220187  RH  081%=      5-min Rain = 0
KAHS 270828Z 23007KT 22/19 A2986 RMK A01 T02220188  RH  081%=      5-min Rain = 0
KAHS 270829Z 22006KT 22/19 A2986 RMK A01 T02220187  RH  081%=      5-min Rain = 0
KAHS 270830Z 22007KT 22/19 A2986 RMK A01 T02210188  RH  081%=      5-min Rain = 0
KAHS 270831Z 22008KT 22/19 A2986 RMK A01 T02200187  RH  081%=      5-min Rain = 0
KAHS 270832Z 21007KT 22/19 A2986 RMK A01 T02200188  RH  082%=      5-min Rain = 0
KAHS 270833Z 22007KT 22/19 A2986 RMK A01 T02200188  RH  082%=      5-min Rain = 0
KAHS 270834Z 22006KT 22/19 A2986 RMK A01 T02200187  RH  082%=      5-min Rain = 0
KAHS 270835Z 22006KT 22/19 A2986 RMK A01 T02200188  RH  082%=      5-min Rain = 0
KAHS 270836Z 22006KT 22/19 A2986 RMK A01 T02190187  RH  082%=      5-min Rain = 0
KAHS 270837Z 22006KT 22/19 A2986 RMK A01 T02190188  RH  082%=      5-min Rain = 0
KAHS 270838Z 22005KT 22/19 A2986 RMK A01 T02190188  RH  082%=      5-min Rain = 0
KAHS 270839Z 22005KT 22/19 A2986 RMK A01 T02190188  RH  082%=      5-min Rain = 0
KAHS 270840Z 22005KT 22/19 A2986 RMK A01 T02190188  RH  082%=      5-min Rain = 0
KAHS 270841Z 22005KT 22/19 A2986 RMK A01 T02190187  RH  082%=      5-min Rain = 0
KAHS 270842Z 22005KT 22/19 A2986 RMK A01 T02190188  RH  082%=      5-min Rain = 0
KAHS 270843Z 23005KT 22/19 A2986 RMK A01 T02190188  RH  083%=      5-min Rain = 0
KAHS 270844Z 23004KT 22/19 A2986 RMK A01 T02190188  RH  083%=      5-min Rain = 0
KAHS 270845Z 23004KT 22/19 A2986 RMK A01 T02190188  RH  082%=      5-min Rain = 0
KAHS 270846Z 22004KT 22/19 A2986 RMK A01 T02190188  RH  083%=      5-min Rain = 0
KAHS 270847Z 22004KT 22/19 A2986 RMK A01 T02190188  RH  083%=      5-min Rain = 0
KAHS 270848Z 22005KT 22/19 A2986 RMK A01 T02190188  RH  083%=      5-min Rain = 0
KAHS 270849Z 22005KT 22/19 A2986 RMK A01 T02190188  RH  083%=      5-min Rain = 0
KAHS 270850Z 22004KT 22/19 A2986 RMK A01 T02200189  RH  083%=      5-min Rain = 0
KAHS 270851Z 22004KT 22/19 A2986 RMK A01 T02190189  RH  083%=      5-min Rain = 0
KAHS 270852Z 23003KT 22/19 A2986 RMK A01 T02190189  RH  083%=      5-min Rain = 0
KAHS 270853Z 22004KT 22/19 A2986 RMK A01 T02190189  RH  083%=      5-min Rain = 0
KAHS 270854Z 22003KT 22/19 A2986 RMK A01 T02190189  RH  083%=      5-min Rain = 0
KAHS 270855Z 21003KT 22/19 A2986 RMK A01 T02180189  RH  083%=      5-min Rain = 0
KAHS 270856Z 21003KT 22/19 A2986 RMK A01 T02180189  RH  083%=      5-min Rain = 0
KAHS 270857Z 22004KT 22/19 A2986 RMK A01 T02180189  RH  083%=      5-min Rain = 0
KAHS 270858Z 21003KT 22/19 A2986 RMK A01 T02180189  RH  083%=      5-min Rain = 0
KAHS 270859Z 22003KT 22/19 A2986 RMK A01 T02190189  RH  083%=      5-min Rain = 0
KAHS 270900Z 22003KT 22/19 A2986 RMK A01 T02190189  RH  083%=      5-min Rain = 0
KAHS 270901Z 20003KT 22/19 A2986 RMK A01 T02190189  RH  083%=      5-min Rain = 0
KAHS 270902Z 22003KT 22/19 A2986 RMK A01 T02180189  RH  083%=      5-min Rain = 0
KAHS 270903Z 21003KT 22/19 A2986 RMK A01 T02180189  RH  083%=      5-min Rain = 0
KAHS 270904Z 20003KT 22/19 A2986 RMK A01 T02180189  RH  083%=      5-min Rain = 0
KAHS 270905Z 19003KT 22/19 A2986 RMK A01 T02180189  RH  083%=      5-min Rain = 0
KAHS 270906Z 20003KT 22/19 A2986 RMK A01 T02180189  RH  084%=      5-min Rain = 0
KAHS 270907Z 21003KT 22/19 A2986 RMK A01 T02180189  RH  084%=      5-min Rain = 0
KAHS 270908Z 21003KT 22/19 A2986 RMK A01 T02180189  RH  084%=      5-min Rain = 0
KAHS 270909Z 20003KT 22/19 A2986 RMK A01 T02180189  RH  084%=      5-min Rain = 0
KAHS 270910Z 20003KT 22/19 A2985 RMK A01 T02180189  RH  084%=      5-min Rain = 0
KAHS 270911Z 19003KT 22/19 A2985 RMK A01 T02180189  RH  084%=      5-min Rain = 0
KAHS 270912Z 19003KT 22/19 A2985 RMK A01 T02180189  RH  084%=      5-min Rain = 0
KAHS 270913Z 20003KT 22/19 A2985 RMK A01 T02180189  RH  084%=      5-min Rain = 0
KAHS 270914Z 20002KT 22/19 A2985 RMK A01 T02180190  RH  084%=      5-min Rain = 0
KAHS 270915Z 20003KT 22/19 A2985 RMK A01 T02180190  RH  084%=      5-min Rain = 0
KAHS 270916Z 21003KT 22/19 A2985 RMK A01 T02180190  RH  084%=      5-min Rain = 0
KAHS 270917Z 21003KT 22/19 A2985 RMK A01 T02180189  RH  084%=      5-min Rain = 0
KAHS 270918Z 21003KT 22/19 A2985 RMK A01 T02180190  RH  084%=      5-min Rain = 0
KAHS 270919Z 20003KT 22/19 A2985 RMK A01 T02180190  RH  084%=      5-min Rain = 0
KAHS 270920Z 19003KT 22/19 A2985 RMK A01 T02180189  RH  084%=      5-min Rain = 0
KAHS 270921Z 19003KT 22/19 A2985 RMK A01 T02180190  RH  084%=      5-min Rain = 0
KAHS 270922Z 19003KT 22/19 A2985 RMK A01 T02180190  RH  084%=      5-min Rain = 0
KAHS 270923Z 19003KT 22/19 A2985 RMK A01 T02180190  RH  084%=      5-min Rain = 0
KAHS 270924Z 19003KT 22/19 A2985 RMK A01 T02180189  RH  084%=      5-min Rain = 0
KAHS 270925Z 18004KT 22/19 A2985 RMK A01 T02180190  RH  084%=      5-min Rain = 0
KAHS 270926Z 20004KT 22/19 A2985 RMK A01 T02180190  RH  084%=      5-min Rain = 0
KAHS 270927Z 19003KT 22/19 A2985 RMK A01 T02180190  RH  084%=      5-min Rain = 0
KAHS 270928Z 19003KT 22/19 A2985 RMK A01 T02180190  RH  084%=      5-min Rain = 0
KAHS 270929Z 18003KT 22/19 A2985 RMK A01 T02180190  RH  084%=      5-min Rain = 0
KAHS 270930Z 18003KT 22/19 A2985 RMK A01 T02180190  RH  084%=      5-min Rain = 0
KAHS 270931Z 19003KT 22/19 A2985 RMK A01 T02180190  RH  084%=      5-min Rain = 0
KAHS 270932Z 19003KT 22/19 A2985 RMK A01 T02180190  RH  084%=      5-min Rain = 0
KAHS 270933Z 18004KT 22/19 A2985 RMK A01 T02180190  RH  084%=      5-min Rain = 0
KAHS 270934Z 19004KT 22/19 A2985 RMK A01 T02180190  RH  084%=      5-min Rain = 0
KAHS 270935Z 18004KT 22/19 A2985 RMK A01 T02180190  RH  084%=      5-min Rain = 0
KAHS 270936Z 18004KT 22/19 A2985 RMK A01 T02180190  RH  084%=      5-min Rain = 0
KAHS 270937Z 18004KT 22/19 A2985 RMK A01 T02190190  RH  084%=      5-min Rain = 0
KAHS 270938Z 18004KT 22/19 A2985 RMK A01 T02190190  RH  084%=      5-min Rain = 0
KAHS 270939Z 18004KT 22/19 A2985 RMK A01 T02190190  RH  084%=      5-min Rain = 0
KAHS 270940Z 18004KT 22/19 A2985 RMK A01 T02190190  RH  084%=      5-min Rain = 0
KAHS 270941Z 19004KT 22/19 A2985 RMK A01 T02190190  RH  084%=      5-min Rain = 0
KAHS 270942Z 18005KT 22/19 A2985 RMK A01 T02200190  RH  083%=      5-min Rain = 0
KAHS 270943Z 18004KT 22/19 A2985 RMK A01 T02200190  RH  083%=      5-min Rain = 0
KAHS 270944Z 18005KT 22/19 A2985 RMK A01 T02200190  RH  083%=      5-min Rain = 0
KAHS 270945Z 18004KT 22/19 A2985 RMK A01 T02210190  RH  083%=      5-min Rain = 0
KAHS 270946Z 19003KT 22/19 A2985 RMK A01 T02210191  RH  083%=      5-min Rain = 0
KAHS 270947Z 19003KT 22/19 A2985 RMK A01 T02210191  RH  083%=      5-min Rain = 0
KAHS 270948Z 19004KT 22/19 A2985 RMK A01 T02200191  RH  083%=      5-min Rain = 0
KAHS 270949Z 18004KT 22/19 A2985 RMK A01 T02200191  RH  083%=      5-min Rain = 0
KAHS 270950Z 17004KT 22/19 A2985 RMK A01 T02200191  RH  083%=      5-min Rain = 0
KAHS 270951Z 18005KT 22/19 A2985 RMK A01 T02200191  RH  083%=      5-min Rain = 0
KAHS 270952Z 18005KT 22/19 A2985 RMK A01 T02200191  RH  083%=      5-min Rain = 0
KAHS 270953Z 17004KT 22/19 A2985 RMK A01 T02210191  RH  083%=      5-min Rain = 0
KAHS 270954Z 17006KT 22/19 A2985 RMK A01 T02210191  RH  083%=      5-min Rain = 0
KAHS 270955Z 18006KT 22/19 A2985 RMK A01 T02210191  RH  083%=      5-min Rain = 0
KAHS 270956Z 17005KT 22/19 A2985 RMK A01 T02210191  RH  083%=      5-min Rain = 0
KAHS 270957Z 17004KT 22/19 A2985 RMK A01 T02210191  RH  083%=      5-min Rain = 0
KAHS 270958Z 18004KT 22/19 A2985 RMK A01 T02210191  RH  083%=      5-min Rain = 0
KAHS 270959Z 18005KT 22/19 A2985 RMK A01 T02210191  RH  083%=      5-min Rain = 0
KAHS 271000Z 18005KT 22/19 A2985 RMK A01 T02200191  RH  083%=      5-min Rain = 0
KAHS 271001Z 18006KT 22/19 A2985 RMK A01 T02200191  RH  083%=      5-min Rain = 0
KAHS 271002Z 18007KT 22/19 A2985 RMK A01 T02210191  RH  083%=      5-min Rain = 0
KAHS 271003Z 18005KT 22/19 A2985 RMK A01 T02210191  RH  083%=      5-min Rain = 0
KAHS 271004Z 17006KT 22/19 A2985 RMK A01 T02220191  RH  083%=      5-min Rain = 0
KAHS 271005Z 17006KT 22/19 A2985 RMK A01 T02220191  RH  083%=      5-min Rain = 0
KAHS 271006Z 18006KT 22/19 A2985 RMK A01 T02220191  RH  083%=      5-min Rain = 0
KAHS 271007Z 18007KT 22/19 A2985 RMK A01 T02220191  RH  083%=      5-min Rain = 0
KAHS 271008Z 18008KT 22/19 A2985 RMK A01 T02220191  RH  083%=      5-min Rain = 0
KAHS 271009Z 18008KT 22/19 A2985 RMK A01 T02230191  RH  082%=      5-min Rain = 0
KAHS 271010Z 19008KT 22/19 A2985 RMK A01 T02230191  RH  082%=      5-min Rain = 0
KAHS 271011Z 18006KT 22/19 A2985 RMK A01 T02240191  RH  082%=      5-min Rain = 0
KAHS 271012Z 19004KT 22/19 A2985 RMK A01 T02230191  RH  082%=      5-min Rain = 0
KAHS 271013Z 18007KT 22/19 A2985 RMK A01 T02230191  RH  082%=      5-min Rain = 0
KAHS 271014Z 19009KT 22/19 A2985 RMK A01 T02230191  RH  082%=      5-min Rain = 0
KAHS 271015Z 19010KT 22/19 A2985 RMK A01 T02230191  RH  082%=      5-min Rain = 0
KAHS 271016Z 18008KT 22/19 A2985 RMK A01 T02240191  RH  082%=      5-min Rain = 0
KAHS 271017Z 19007KT 22/19 A2985 RMK A01 T02240191  RH  082%=      5-min Rain = 0
KAHS 271018Z 18008KT 22/19 A2985 RMK A01 T02240192  RH  082%=      5-min Rain = 0
KAHS 271019Z 18008G13KT 23/19 A2985 RMK A01 T02250191  RH  081%=      5-min Rain = 0
KAHS 271020Z 18008KT 23/19 A2985 RMK A01 T02250191  RH  081%=      5-min Rain = 0
KAHS 271021Z 19008KT 23/19 A2985 RMK A01 T02250191  RH  081%=      5-min Rain = 0
KAHS 271022Z 19008KT 23/19 A2985 RMK A01 T02250191  RH  081%=      5-min Rain = 0
KAHS 271023Z 18009KT 23/19 A2985 RMK A01 T02250191  RH  081%=      5-min Rain = 0
KAHS 271024Z 18007KT 23/19 A2985 RMK A01 T02250192  RH  081%=      5-min Rain = 0
KAHS 271025Z 18008KT 22/19 A2985 RMK A01 T02240191  RH  082%=      5-min Rain = 0
KAHS 271026Z 18008KT 22/19 A2985 RMK A01 T02240192  RH  082%=      5-min Rain = 0
KAHS 271027Z 19008KT 22/19 A2985 RMK A01 T02240192  RH  082%=      5-min Rain = 0
KAHS 271028Z 19011KT 22/19 A2985 RMK A01 T02240192  RH  082%=      5-min Rain = 0
KAHS 271029Z 19009KT 22/19 A2985 RMK A01 T02240191  RH  082%=      5-min Rain = 0
KAHS 271030Z 19008KT 22/19 A2985 RMK A01 T02240191  RH  082%=      5-min Rain = 0
KAHS 271031Z 19009KT 23/19 A2985 RMK A01 T02250192  RH  082%=      5-min Rain = 0
KAHS 271032Z 19010KT 23/19 A2985 RMK A01 T02250192  RH  081%=      5-min Rain = 0
KAHS 271033Z 19009KT 23/19 A2985 RMK A01 T02260192  RH  081%=      5-min Rain = 0
KAHS 271034Z 18008KT 23/19 A2985 RMK A01 T02250192  RH  081%=      5-min Rain = 0
KAHS 271035Z 19007KT 23/19 A2985 RMK A01 T02250192  RH  082%=      5-min Rain = 0
KAHS 271036Z 18010KT 22/19 A2985 RMK A01 T02240192  RH  082%=      5-min Rain = 0
KAHS 271037Z 19009KT 22/19 A2985 RMK A01 T02240192  RH  082%=      5-min Rain = 0
KAHS 271038Z 19007KT 22/19 A2985 RMK A01 T02240192  RH  082%=      5-min Rain = 0
KAHS 271039Z 19010KT 22/19 A2985 RMK A01 T02240192  RH  082%=      5-min Rain = 0
KAHS 271040Z 18010KT 22/19 A2985 RMK A01 T02240192  RH  082%=      5-min Rain = 0
KAHS 271041Z 19008KT 22/19 A2985 RMK A01 T02240192  RH  082%=      5-min Rain = 0
KAHS 271042Z 18009KT 22/19 A2984 RMK A01 T02240192  RH  082%=      5-min Rain = 0
KAHS 271043Z 18010KT 22/19 A2984 RMK A01 T02240192  RH  082%=      5-min Rain = 0
KAHS 271044Z 18010KT 22/19 A2985 RMK A01 T02240192  RH  082%=      5-min Rain = 0
KAHS 271045Z 19008KT 22/19 A2985 RMK A01 T02240193  RH  082%=      5-min Rain = 0
KAHS 271046Z 19009KT 22/19 A2985 RMK A01 T02240192  RH  082%=      5-min Rain = 0
KAHS 271047Z 18010KT 22/19 A2985 RMK A01 T02240193  RH  083%=      5-min Rain = 0
KAHS 271048Z 19009KT 22/19 A2985 RMK A01 T02240193  RH  083%=      5-min Rain = 0
KAHS 271049Z 18008KT 22/19 A2985 RMK A01 T02240192  RH  082%=      5-min Rain = 0
KAHS 271050Z 19009KT 22/19 A2985 RMK A01 T02240193  RH  083%=      5-min Rain = 0
KAHS 271051Z 19009KT 22/19 A2985 RMK A01 T02240193  RH  083%=      5-min Rain = 0
KAHS 271052Z 19009KT 22/19 A2985 RMK A01 T02240193  RH  083%=      5-min Rain = 0
KAHS 271053Z 19009KT 22/19 A2985 RMK A01 T02240193  RH  082%=      5-min Rain = 0
KAHS 271054Z 19007KT 22/19 A2985 RMK A01 T02240193  RH  082%=      5-min Rain = 0
KAHS 271055Z 18007KT 22/19 A2985 RMK A01 T02240193  RH  083%=      5-min Rain = 0
KAHS 271056Z 18009KT 22/19 A2985 RMK A01 T02230193  RH  083%=      5-min Rain = 0
KAHS 271057Z 19009KT 22/19 A2985 RMK A01 T02230193  RH  083%=      5-min Rain = 0
KAHS 271058Z 19008KT 22/19 A2985 RMK A01 T02230193  RH  083%=      5-min Rain = 0
KAHS 271059Z 19007KT 22/19 A2985 RMK A01 T02220193  RH  083%=      5-min Rain = 0
KAHS 271100Z 18006KT 22/19 A2985 RMK A01 T02220193  RH  083%=      5-min Rain = 0
KAHS 271101Z 19008KT 22/19 A2985 RMK A01 T02230193  RH  083%=      5-min Rain = 0
KAHS 271102Z 19009KT 22/19 A2985 RMK A01 T02230193  RH  083%=      5-min Rain = 0
KAHS 271103Z 19008KT 22/19 A2985 RMK A01 T02230193  RH  083%=      5-min Rain = 0
KAHS 271104Z 18008KT 22/19 A2985 RMK A01 T02230193  RH  083%=      5-min Rain = 0
KAHS 271105Z 19008KT 22/19 A2985 RMK A01 T02230193  RH  083%=      5-min Rain = 0
KAHS 271106Z 19008G13KT 22/19 A2985 RMK A01 T02230193  RH  083%=      5-min Rain = 0
KAHS 271107Z 18008KT 22/19 A2985 RMK A01 T02230193  RH  083%=      5-min Rain = 0
KAHS 271108Z 19008KT 22/19 A2985 RMK A01 T02230193  RH  083%=      5-min Rain = 0
KAHS 271109Z 17008KT 22/19 A2985 RMK A01 T02220194  RH  084%=      5-min Rain = 0
KAHS 271110Z 19007KT 22/19 A2985 RMK A01 T02220193  RH  084%=      5-min Rain = 0
KAHS 271111Z 19008KT 22/19 A2985 RMK A01 T02220193  RH  084%=      5-min Rain = 0
KAHS 271112Z 19008G13KT 22/19 A2985 RMK A01 T02220194  RH  084%=      5-min Rain = 0
KAHS 271113Z 19009KT 22/19 A2985 RMK A01 T02220194  RH  084%=      5-min Rain = 0
KAHS 271114Z 19007KT 22/19 A2985 RMK A01 T02220193  RH  084%=      5-min Rain = 0
KAHS 271115Z 19008KT 22/19 A2985 RMK A01 T02220194  RH  084%=      5-min Rain = 0
KAHS 271116Z 19007KT 22/19 A2985 RMK A01 T02220194  RH  084%=      5-min Rain = 0
KAHS 271117Z 18007KT 22/19 A2985 RMK A01 T02210194  RH  084%=      5-min Rain = 0
KAHS 271118Z 18006KT 22/19 A2985 RMK A01 T02210194  RH  084%=      5-min Rain = 0
KAHS 271119Z 18006KT 22/19 A2985 RMK A01 T02210194  RH  085%=      5-min Rain = 0
KAHS 271120Z 17008KT 22/19 A2985 RMK A01 T02200193  RH  085%=      5-min Rain = 0
KAHS 271121Z 19007KT 22/19 A2985 RMK A01 T02200194  RH  085%=      5-min Rain = 0
KAHS 271122Z 18008G13KT 22/19 A2985 RMK A01 T02200194  RH  085%=      5-min Rain = 0
KAHS 271123Z 17006KT 22/19 A2985 RMK A01 T02200194  RH  085%=      5-min Rain = 0
KAHS 271124Z 18007KT 22/19 A2985 RMK A01 T02200194  RH  085%=      5-min Rain = 0
KAHS 271125Z 17006KT 22/19 A2985 RMK A01 T02200194  RH  085%=      5-min Rain = 0
KAHS 271126Z 18007KT 22/19 A2985 RMK A01 T02190193  RH  085%=      5-min Rain = 0
KAHS 271127Z 17007KT 22/19 A2985 RMK A01 T02190194  RH  086%=      5-min Rain = 0
KAHS 271128Z 18007KT 22/19 A2985 RMK A01 T02190194  RH  086%=      5-min Rain = 0
KAHS 271129Z 18006KT 22/19 A2985 RMK A01 T02190194  RH  086%=      5-min Rain = 0
KAHS 271130Z 19007KT 22/19 A2985 RMK A01 T02190194  RH  086%=      5-min Rain = 0
KAHS 271131Z 18007KT 22/19 A2985 RMK A01 T02190194  RH  086%=      5-min Rain = 0
KAHS 271132Z 18008KT 22/19 A2985 RMK A01 T02190194  RH  086%=      5-min Rain = 0
KAHS 271133Z 19008KT 22/19 A2985 RMK A01 T02190194  RH  086%=      5-min Rain = 0
KAHS 271134Z 19007KT 22/19 A2985 RMK A01 T02200194  RH  085%=      5-min Rain = 0
KAHS 271135Z 19008KT 22/20 A2985 RMK A01 T02200195  RH  086%=      5-min Rain = 0
KAHS 271136Z 19009KT 22/19 A2985 RMK A01 T02200194  RH  085%=      5-min Rain = 0
KAHS 271137Z 19009KT 22/20 A2985 RMK A01 T02200195  RH  085%=      5-min Rain = 0
KAHS 271138Z 19008KT 22/20 A2985 RMK A01 T02210195  RH  085%=      5-min Rain = 0
KAHS 271139Z 18008KT 22/19 A2985 RMK A01 T02200194  RH  085%=      5-min Rain = 0
KAHS 271140Z 18007KT 22/19 A2985 RMK A01 T02200194  RH  085%=      5-min Rain = 0
KAHS 271141Z 18007KT 22/19 A2985 RMK A01 T02200194  RH  085%=      5-min Rain = 0
KAHS 271142Z 18010KT 22/19 A2985 RMK A01 T02200194  RH  085%=      5-min Rain = 0
KAHS 271143Z 19009KT 22/20 A2985 RMK A01 T02200195  RH  085%=      5-min Rain = 0
KAHS 271144Z 19007KT 22/20 A2985 RMK A01 T02210195  RH  085%=      5-min Rain = 0
KAHS 271145Z 18007KT 22/19 A2985 RMK A01 T02200194  RH  085%=      5-min Rain = 0
KAHS 271146Z 18007KT 22/19 A2985 RMK A01 T02200194  RH  085%=      5-min Rain = 0
KAHS 271147Z 18008KT 22/20 A2985 RMK A01 T02190195  RH  086%=      5-min Rain = 0
KAHS 271148Z 19009KT 22/20 A2985 RMK A01 T02200195  RH  086%=      5-min Rain = 0
KAHS 271149Z 19008KT 22/20 A2985 RMK A01 T02200195  RH  085%=      5-min Rain = 0
KAHS 271150Z 19008KT 22/19 A2985 RMK A01 T02200194  RH  085%=      5-min Rain = 0
KAHS 271151Z 19010KT 22/20 A2985 RMK A01 T02200195  RH  085%=      5-min Rain = 0
KAHS 271152Z 18008KT 22/20 A2985 RMK A01 T02200195  RH  085%=      5-min Rain = 0
KAHS 271153Z 18008KT 22/20 A2985 RMK A01 T02200195  RH  085%=      5-min Rain = 0
KAHS 271154Z 19008KT 22/20 A2985 RMK A01 T02200195  RH  085%=      5-min Rain = 0
KAHS 271155Z 18007KT 22/19 A2985 RMK A01 T02200194  RH  085%=      5-min Rain = 0
KAHS 271156Z 19007KT 22/19 A2985 RMK A01 T02200194  RH  086%=      5-min Rain = 0
KAHS 271157Z 19008KT 22/19 A2985 RMK A01 T02190194  RH  086%=      5-min Rain = 0
KAHS 271158Z 19008KT 22/20 A2985 RMK A01 T02190195  RH  086%=      5-min Rain = 0
KAHS 271159Z 19008KT 22/20 A2985 RMK A01 T02190195  RH  086%=      5-min Rain = 0
KAHS 271200Z 19007KT 22/19 A2985 RMK A01 T02190194  RH  086%=      5-min Rain = 0
KAHS 271201Z 19010KT 22/20 A2985 RMK A01 T02190195  RH  086%=      5-min Rain = 0
KAHS 271202Z 19008KT 22/19 A2985 RMK A01 T02190194  RH  086%=      5-min Rain = 0
KAHS 271203Z 19008KT 22/20 A2985 RMK A01 T02190195  RH  086%=      5-min Rain = 0
KAHS 271204Z 19009KT 22/20 A2985 RMK A01 T02200195  RH  086%=      5-min Rain = 0
KAHS 271205Z 19009KT 22/20 A2985 RMK A01 T02200195  RH  085%=      5-min Rain = 0
KAHS 271206Z 19008KT 22/19 A2985 RMK A01 T02200194  RH  085%=      5-min Rain = 0
KAHS 271207Z 19011KT 22/20 A2985 RMK A01 T02200195  RH  085%=      5-min Rain = 0
KAHS 271208Z 19012KT 22/20 A2985 RMK A01 T02210195  RH  085%=      5-min Rain = 0
KAHS 271209Z 20010KT 22/20 A2985 RMK A01 T02220195  RH  085%=      5-min Rain = 0
KAHS 271210Z 20009KT 22/19 A2985 RMK A01 T02220194  RH  084%=      5-min Rain = 0
KAHS 271211Z 19008KT 22/19 A2985 RMK A01 T02220194  RH  085%=      5-min Rain = 0
KAHS 271212Z 19008KT 22/20 A2985 RMK A01 T02220195  RH  085%=      5-min Rain = 0
KAHS 271213Z 19009KT 22/20 A2985 RMK A01 T02220195  RH  085%=      5-min Rain = 0
KAHS 271214Z 19009KT 22/20 A2986 RMK A01 T02220195  RH  085%=      5-min Rain = 0
KAHS 271215Z 19009KT 22/20 A2986 RMK A01 T02220195  RH  085%=      5-min Rain = 0
KAHS 271216Z 18008KT 22/20 A2986 RMK A01 T02220195  RH  085%=      5-min Rain = 0
KAHS 271217Z 20008KT 22/20 A2986 RMK A01 T02220195  RH  085%=      5-min Rain = 0
KAHS 271218Z 19008KT 22/20 A2986 RMK A01 T02220195  RH  085%=      5-min Rain = 0
KAHS 271219Z 20008KT 22/20 A2986 RMK A01 T02230195  RH  084%=      5-min Rain = 0
KAHS 271220Z 20012KT 22/20 A2986 RMK A01 T02230195  RH  084%=      5-min Rain = 0
KAHS 271221Z 20011KT 22/20 A2986 RMK A01 T02240195  RH  084%=      5-min Rain = 0
KAHS 271222Z 20009KT 22/20 A2986 RMK A01 T02240195  RH  084%=      5-min Rain = 0
KAHS 271223Z 19008G13KT 22/20 A2986 RMK A01 T02240195  RH  084%=      5-min Rain = 0
KAHS 271224Z 19007KT 22/20 A2986 RMK A01 T02240195  RH  084%=      5-min Rain = 0
KAHS 271225Z 19009KT 22/20 A2986 RMK A01 T02240195  RH  084%=      5-min Rain = 0
KAHS 271226Z 18009KT 22/20 A2986 RMK A01 T02240195  RH  084%=      5-min Rain = 0
KAHS 271227Z 19012KT 22/20 A2986 RMK A01 T02240195  RH  084%=      5-min Rain = 0
KAHS 271228Z 19009KT 22/20 A2986 RMK A01 T02240195  RH  083%=      5-min Rain = 0
KAHS 271229Z 19009KT 22/20 A2986 RMK A01 T02240195  RH  083%=      5-min Rain = 0
KAHS 271230Z 19008KT 22/20 A2986 RMK A01 T02240195  RH  084%=      5-min Rain = 0
KAHS 271231Z 19010KT 23/20 A2986 RMK A01 T02250195  RH  083%=      5-min Rain = 0
KAHS 271232Z 18012KT 23/20 A2986 RMK A01 T02250195  RH  083%=      5-min Rain = 0
KAHS 271233Z 19010KT 23/20 A2986 RMK A01 T02250195  RH  083%=      5-min Rain = 0
KAHS 271234Z 19011KT 23/20 A2986 RMK A01 T02250195  RH  083%=      5-min Rain = 0
KAHS 271235Z 19010KT 23/20 A2986 RMK A01 T02250195  RH  083%=      5-min Rain = 0
KAHS 271236Z 20011KT 23/20 A2986 RMK A01 T02260196  RH  083%=      5-min Rain = 0
KAHS 271237Z 19012KT 23/20 A2986 RMK A01 T02260195  RH  083%=      5-min Rain = 0
KAHS 271238Z 20009KT 23/20 A2986 RMK A01 T02260195  RH  083%=      5-min Rain = 0
KAHS 271239Z 19009KT 23/20 A2986 RMK A01 T02260195  RH  083%=      5-min Rain = 0
KAHS 271240Z 20011KT 23/20 A2986 RMK A01 T02260195  RH  083%=      5-min Rain = 0
KAHS 271241Z 19010KT 23/20 A2986 RMK A01 T02260195  RH  082%=      5-min Rain = 0
KAHS 271242Z 19009KT 23/20 A2986 RMK A01 T02270195  RH  082%=      5-min Rain = 0
KAHS 271243Z 19010KT 23/20 A2986 RMK A01 T02270195  RH  082%=      5-min Rain = 0
KAHS 271244Z 19010KT 23/20 A2986 RMK A01 T02270195  RH  082%=      5-min Rain = 0
KAHS 271245Z 19009KT 23/20 A2986 RMK A01 T02280196  RH  082%=      5-min Rain = 0
KAHS 271246Z 19009KT 23/20 A2986 RMK A01 T02280195  RH  082%=      5-min Rain = 0
KAHS 271247Z 19010KT 23/20 A2986 RMK A01 T02280195  RH  082%=      5-min Rain = 0
KAHS 271248Z 20009KT 23/20 A2986 RMK A01 T02280195  RH  082%=      5-min Rain = 0
KAHS 271249Z 19008KT 23/20 A2986 RMK A01 T02290196  RH  082%=      5-min Rain = 0
KAHS 271250Z 19011KT 23/20 A2986 RMK A01 T02290196  RH  082%=      5-min Rain = 0
KAHS 271251Z 20011KT 23/20 A2986 RMK A01 T02290195  RH  081%=      5-min Rain = 0
KAHS 271252Z 19008KT 23/20 A2986 RMK A01 T02290196  RH  081%=      5-min Rain = 0
KAHS 271253Z 20010KT 23/20 A2986 RMK A01 T02290196  RH  081%=      5-min Rain = 0
KAHS 271254Z 20010KT 23/20 A2986 RMK A01 T02300195  RH  081%=      5-min Rain = 0
KAHS 271255Z 19009KT 23/20 A2986 RMK A01 T02300196  RH  081%=      5-min Rain = 0
KAHS 271256Z 19013KT 23/20 A2986 RMK A01 T02300196  RH  081%=      5-min Rain = 0
KAHS 271257Z 20011KT 23/20 A2986 RMK A01 T02300195  RH  081%=      5-min Rain = 0
KAHS 271258Z 19013KT 23/20 A2986 RMK A01 T02300195  RH  081%=      5-min Rain = 0
KAHS 271259Z 19013KT 23/20 A2986 RMK A01 T02300195  RH  081%=      5-min Rain = 0
KAHS 271300Z 19010KT 23/20 A2986 RMK A01 T02300195  RH  081%=      5-min Rain = 0
KAHS 271301Z 19013KT 23/20 A2986 RMK A01 T02300195  RH  081%=      5-min Rain = 0
KAHS 271302Z 19011KT 23/20 A2986 RMK A01 T02300195  RH  081%=      5-min Rain = 0
KAHS 271303Z 20010KT 23/20 A2986 RMK A01 T02310196  RH  081%=      5-min Rain = 0
KAHS 271304Z 19013KT 23/20 A2986 RMK A01 T02310196  RH  081%=      5-min Rain = 0
KAHS 271305Z 19011KT 23/20 A2986 RMK A01 T02310196  RH  080%=      5-min Rain = 0
KAHS 271306Z 19010KT 23/20 A2986 RMK A01 T02320196  RH  080%=      5-min Rain = 0
KAHS 271307Z 19011KT 23/20 A2986 RMK A01 T02320196  RH  080%=      5-min Rain = 0
KAHS 271308Z 19011KT 23/20 A2986 RMK A01 T02320196  RH  080%=      5-min Rain = 0
KAHS 271309Z 20011KT 23/20 A2986 RMK A01 T02310196  RH  080%=      5-min Rain = 0
KAHS 271310Z 19010KT 23/20 A2986 RMK A01 T02310196  RH  080%=      5-min Rain = 0
KAHS 271311Z 19011KT 23/20 A2986 RMK A01 T02320196  RH  081%=      5-min Rain = 0
KAHS 271312Z 19016KT 23/20 A2986 RMK A01 T02310196  RH  081%=      5-min Rain = 0
KAHS 271313Z 19015KT 23/20 A2986 RMK A01 T02320195  RH  080%=      5-min Rain = 0
KAHS 271314Z 19011KT 23/20 A2986 RMK A01 T02330196  RH  080%=      5-min Rain = 0
KAHS 271315Z 19010KT 23/20 A2986 RMK A01 T02340197  RH  080%=      5-min Rain = 0
KAHS 271316Z 19017KT 24/20 A2986 RMK A01 T02350196  RH  079%=      5-min Rain = 0
KAHS 271317Z 20015KT 24/20 A2986 RMK A01 T02350195  RH  079%=      5-min Rain = 0
KAHS 271318Z 19010KT 24/20 A2986 RMK A01 T02350196  RH  079%=      5-min Rain = 0
KAHS 271319Z 20012KT 24/20 A2986 RMK A01 T02350196  RH  079%=      5-min Rain = 0
KAHS 271320Z 20010KT 24/20 A2986 RMK A01 T02350196  RH  079%=      5-min Rain = 0
KAHS 271321Z 19012KT 24/20 A2986 RMK A01 T02350197  RH  079%=      5-min Rain = 0
KAHS 271322Z 20012KT 24/20 A2986 RMK A01 T02350196  RH  079%=      5-min Rain = 0
KAHS 271323Z 20012KT 24/20 A2986 RMK A01 T02350196  RH  079%=      5-min Rain = 0
KAHS 271324Z 20011KT 24/20 A2986 RMK A01 T02350197  RH  079%=      5-min Rain = 0
KAHS 271325Z 18012KT 24/20 A2986 RMK A01 T02350196  RH  079%=      5-min Rain = 0
KAHS 271326Z 21013G18KT 24/20 A2986 RMK A01 T02350196  RH  079%=      5-min Rain = 0
KAHS 271327Z 19014G20KT 24/20 A2986 RMK A01 T02350197  RH  079%=      5-min Rain = 0
KAHS 271328Z 20012KT 24/20 A2987 RMK A01 T02360196  RH  078%=      5-min Rain = 0
KAHS 271329Z 20011KT 24/20 A2987 RMK A01 T02360197  RH  079%=      5-min Rain = 0
KAHS 271330Z 20014KT 24/20 A2987 RMK A01 T02370196  RH  078%=      5-min Rain = 0
KAHS 271331Z 20014KT 24/20 A2987 RMK A01 T02360195  RH  078%=      5-min Rain = 0
KAHS 271332Z 19009KT 24/20 A2987 RMK A01 T02360197  RH  078%=      5-min Rain = 0
KAHS 271333Z 19013KT 24/20 A2987 RMK A01 T02370198  RH  079%=      5-min Rain = 0
KAHS 271334Z 20012KT 24/20 A2987 RMK A01 T02370196  RH  078%=      5-min Rain = 0
KAHS 271335Z 20016G21KT 24/20 A2987 RMK A01 T02360196  RH  078%=      5-min Rain = 0
KAHS 271336Z 19014G19KT 24/20 A2987 RMK A01 T02350195  RH  078%=      5-min Rain = 0
KAHS 271337Z 19016G21KT 24/20 A2987 RMK A01 T02350195  RH  078%=      5-min Rain = 0
KAHS 271338Z 19016KT 24/20 A2987 RMK A01 T02360195  RH  078%=      5-min Rain = 0
KAHS 271339Z 19014KT 24/20 A2987 RMK A01 T02360195  RH  078%=      5-min Rain = 0
KAHS 271340Z 20012G17KT 24/20 A2987 RMK A01 T02370196  RH  078%=      5-min Rain = 0
KAHS 271341Z 19012KT 24/20 A2987 RMK A01 T02370196  RH  078%=      5-min Rain = 0
KAHS 271342Z 20013KT 24/20 A2987 RMK A01 T02370196  RH  078%=      5-min Rain = 0
KAHS 271343Z 21010KT 24/20 A2987 RMK A01 T02380196  RH  077%=      5-min Rain = 0
KAHS 271344Z 20011KT 24/20 A2987 RMK A01 T02390198  RH  078%=      5-min Rain = 0
KAHS 271345Z 20012KT 24/20 A2987 RMK A01 T02400197  RH  077%=      5-min Rain = 0
KAHS 271346Z 19010KT 24/20 A2987 RMK A01 T02390198  RH  077%=      5-min Rain = 0
KAHS 271347Z 18014G20KT 24/20 A2987 RMK A01 T02390196  RH  077%=      5-min Rain = 0
KAHS 271348Z 20013G18KT 24/20 A2987 RMK A01 T02380196  RH  077%=      5-min Rain = 0
KAHS 271349Z 20014KT 24/20 A2987 RMK A01 T02390197  RH  077%=      5-min Rain = 0
KAHS 271350Z 20012KT 24/20 A2987 RMK A01 T02390196  RH  077%=      5-min Rain = 0
KAHS 271351Z 19012KT 24/20 A2987 RMK A01 T02400197  RH  077%=      5-min Rain = 0
KAHS 271352Z 19018KT 24/20 A2987 RMK A01 T02400196  RH  076%=      5-min Rain = 0
KAHS 271353Z 20014KT 24/19 A2987 RMK A01 T02380194  RH  076%=      5-min Rain = 0
KAHS 271354Z 20013KT 24/20 A2987 RMK A01 T02380195  RH  077%=      5-min Rain = 0
KAHS 271355Z 20017KT 24/20 A2987 RMK A01 T02380195  RH  077%=      5-min Rain = 0
KAHS 271356Z 20014KT 24/20 A2987 RMK A01 T02380195  RH  077%=      5-min Rain = 0
KAHS 271357Z 20013KT 24/20 A2987 RMK A01 T02380196  RH  077%=      5-min Rain = 0
KAHS 271358Z 21015KT 24/20 A2987 RMK A01 T02390195  RH  076%=      5-min Rain = 0
KAHS 271359Z 20017G22KT 24/19 A2987 RMK A01 T02390194  RH  076%=      5-min Rain = 0
KAHS 271400Z 20018KT 24/19 A2987 RMK A01 T02390194  RH  076%=      5-min Rain = 0
KAHS 271401Z 20015G20KT 24/19 A2987 RMK A01 T02390194  RH  076%=      5-min Rain = 0
KAHS 271402Z 20018KT 24/19 A2987 RMK A01 T02390194  RH  076%=      5-min Rain = 0
KAHS 271403Z 21017KT 24/19 A2987 RMK A01 T02390194  RH  076%=      5-min Rain = 0
KAHS 271404Z 21016KT 24/19 A2987 RMK A01 T02390193  RH  076%=      5-min Rain = 0
KAHS 271405Z 19016KT 24/20 A2987 RMK A01 T02390195  RH  076%=      5-min Rain = 0
KAHS 271406Z 20014KT 24/20 A2987 RMK A01 T02400196  RH  076%=      5-min Rain = 0
KAHS 271407Z 21014KT 24/19 A2987 RMK A01 T02400194  RH  076%=      5-min Rain = 0
KAHS 271408Z 20015G20KT 24/20 A2987 RMK A01 T02410195  RH  076%=      5-min Rain = 0
KAHS 271409Z 20018KT 24/19 A2987 RMK A01 T02410193  RH  075%=      5-min Rain = 0
KAHS 271410Z 21016KT 24/19 A2987 RMK A01 T02400193  RH  075%=      5-min Rain = 0
KAHS 271411Z 20014KT 24/19 A2986 RMK A01 T02390193  RH  075%=      5-min Rain = 0
KAHS 271412Z 20014KT 24/20 A2986 RMK A01 T02410195  RH  076%=      5-min Rain = 0
KAHS 271413Z 20016G21KT 24/20 A2987 RMK A01 T02420195  RH  075%=      5-min Rain = 0
KAHS 271414Z 21014G19KT 24/19 A2986 RMK A01 T02420194  RH  075%=      5-min Rain = 0
KAHS 271415Z 22013KT 24/19 A2986 RMK A01 T02420194  RH  075%=      5-min Rain = 0
KAHS 271416Z 21015KT 24/20 A2986 RMK A01 T02430195  RH  075%=      5-min Rain = 0
KAHS 271417Z 21011G16KT 24/20 A2986 RMK A01 T02430195  RH  075%=      5-min Rain = 0
KAHS 271418Z 21014G19KT 24/20 A2986 RMK A01 T02430196  RH  075%=      5-min Rain = 0
KAHS 271419Z 21014KT 24/19 A2986 RMK A01 T02430194  RH  074%=      5-min Rain = 0
KAHS 271420Z 20012G17KT 24/20 A2986 RMK A01 T02440196  RH  075%=      5-min Rain = 0
KAHS 271421Z 20015KT 25/20 A2986 RMK A01 T02450196  RH  074%=      5-min Rain = 0
KAHS 271422Z 20012G19KT 25/20 A2986 RMK A01 T02450197  RH  075%=      5-min Rain = 0
KAHS 271423Z 20017KT 25/20 A2986 RMK A01 T02450195  RH  074%=      5-min Rain = 0
KAHS 271424Z 19014G20KT 25/20 A2986 RMK A01 T02450195  RH  074%=      5-min Rain = 0
KAHS 271425Z 20016KT 25/20 A2986 RMK A01 T02450195  RH  074%=      5-min Rain = 0
KAHS 271426Z 20013G19KT 24/19 A2986 RMK A01 T02440194  RH  074%=      5-min Rain = 0
KAHS 271427Z 20014KT 25/20 A2986 RMK A01 T02450196  RH  074%=      5-min Rain = 0
KAHS 271428Z 20014KT 25/20 A2986 RMK A01 T02450195  RH  073%=      5-min Rain = 0
KAHS 271429Z 20016G22KT 25/20 A2986 RMK A01 T02450195  RH  073%=      5-min Rain = 0
KAHS 271430Z 20016KT 24/19 A2986 RMK A01 T02440193  RH  073%=      5-min Rain = 0
KAHS 271431Z 20013KT 24/19 A2986 RMK A01 T02440193  RH  073%=      5-min Rain = 0
KAHS 271432Z 20015KT 25/20 A2986 RMK A01 T02450195  RH  074%=      5-min Rain = 0
KAHS 271433Z 20014KT 25/20 A2986 RMK A01 T02450195  RH  074%=      5-min Rain = 0
KAHS 271434Z 20015KT 25/19 A2986 RMK A01 T02450194  RH  073%=      5-min Rain = 0
KAHS 271435Z 21015KT 25/19 A2986 RMK A01 T02450193  RH  073%=      5-min Rain = 0
KAHS 271436Z 21012KT 25/19 A2986 RMK A01 T02450194  RH  073%=      5-min Rain = 0
KAHS 271437Z 21014G19KT 25/20 A2986 RMK A01 T02470197  RH  074%=      5-min Rain = 0
KAHS 271438Z 21014KT 25/19 A2986 RMK A01 T02470194  RH  073%=      5-min Rain = 0
KAHS 271439Z 21015KT 25/20 A2986 RMK A01 T02470196  RH  073%=      5-min Rain = 0
KAHS 271440Z 21017KT 25/19 A2986 RMK A01 T02460194  RH  072%=      5-min Rain = 0
KAHS 271441Z 21014G19KT 25/20 A2986 RMK A01 T02460195  RH  073%=      5-min Rain = 0
KAHS 271442Z 20016G21KT 25/19 A2986 RMK A01 T02470194  RH  073%=      5-min Rain = 0
KAHS 271443Z 20017KT 25/19 A2986 RMK A01 T02460193  RH  072%=      5-min Rain = 0
KAHS 271444Z 19013KT 25/19 A2986 RMK A01 T02450193  RH  072%=      5-min Rain = 0
KAHS 271445Z 19017G22KT 25/20 A2986 RMK A01 T02460195  RH  073%=      5-min Rain = 0
KAHS 271446Z 20016KT 25/19 A2986 RMK A01 T02450193  RH  073%=      5-min Rain = 0
KAHS 271447Z 21019KT 25/19 A2986 RMK A01 T02450193  RH  073%=      5-min Rain = 0
KAHS 271448Z 20017G23KT 25/19 A2986 RMK A01 T02450193  RH  073%=      5-min Rain = 0
KAHS 271449Z 20017KT 25/19 A2986 RMK A01 T02450193  RH  073%=      5-min Rain = 0
KAHS 271450Z 20017KT 25/19 A2986 RMK A01 T02450193  RH  073%=      5-min Rain = 0
KAHS 271451Z 21016KT 25/19 A2986 RMK A01 T02460193  RH  072%=      5-min Rain = 0
KAHS 271452Z 20015KT 25/19 A2986 RMK A01 T02460193  RH  072%=      5-min Rain = 0
KAHS 271453Z 21013KT 25/19 A2986 RMK A01 T02470194  RH  073%=      5-min Rain = 0
KAHS 271454Z 21014KT 25/20 A2986 RMK A01 T02480195  RH  072%=      5-min Rain = 0
KAHS 271455Z 21015KT 25/19 A2986 RMK A01 T02480194  RH  072%=      5-min Rain = 0
KAHS 271456Z 21013G18KT 25/19 A2986 RMK A01 T02470194  RH  072%=      5-min Rain = 0
KAHS 271457Z 21017KT 25/19 A2986 RMK A01 T02470193  RH  072%=      5-min Rain = 0
KAHS 271458Z 21013KT 25/19 A2986 RMK A01 T02460193  RH  072%=      5-min Rain = 0
KAHS 271459Z 19016KT 25/19 A2986 RMK A01 T02470194  RH  072%=      5-min Rain = 0
KAHS 271500Z 20015KT 25/19 A2986 RMK A01 T02470194  RH  072%=      5-min Rain = 0
KAHS 271501Z 20014G19KT 25/19 A2986 RMK A01 T02480194  RH  072%=      5-min Rain = 0
KAHS 271502Z 19015KT 25/20 A2986 RMK A01 T02490195  RH  072%=      5-min Rain = 0
KAHS 271503Z 20013KT 25/20 A2986 RMK A01 T02490196  RH  072%=      5-min Rain = 0
KAHS 271504Z 20014G19KT 25/20 A2986 RMK A01 T02510197  RH  072%=      5-min Rain = 0
KAHS 271505Z 21014G19KT 25/20 A2986 RMK A01 T02510195  RH  071%=      5-min Rain = 0
KAHS 271506Z 21017KT 25/20 A2986 RMK A01 T02510195  RH  071%=      5-min Rain = 0
KAHS 271507Z 20014G19KT 25/20 A2986 RMK A01 T02500195  RH  071%=      5-min Rain = 0
KAHS 271508Z 20015G20KT 25/20 A2986 RMK A01 T02510195  RH  071%=      5-min Rain = 0
KAHS 271509Z 20015KT 25/19 A2986 RMK A01 T02510194  RH  071%=      5-min Rain = 0
KAHS 271510Z 20014KT 25/20 A2986 RMK A01 T02510195  RH  071%=      5-min Rain = 0
KAHS 271511Z 21013KT 25/20 A2986 RMK A01 T02510196  RH  071%=      5-min Rain = 0
KAHS 271512Z 22014KT 25/20 A2986 RMK A01 T02530196  RH  071%=      5-min Rain = 0
KAHS 271513Z 21011KT 25/20 A2986 RMK A01 T02520196  RH  071%=      5-min Rain = 0
KAHS 271514Z 20012KT 25/20 A2986 RMK A01 T02530197  RH  071%=      5-min Rain = 0
KAHS 271515Z 20015G20KT 25/20 A2986 RMK A01 T02530195  RH  070%=      5-min Rain = 0
KAHS 271516Z 20013KT 25/20 A2986 RMK A01 T02520195  RH  070%=      5-min Rain = 0
KAHS 271517Z 21014KT 25/20 A2986 RMK A01 T02530195  RH  070%=      5-min Rain = 0
KAHS 271518Z 21017KT 25/19 A2986 RMK A01 T02530194  RH  070%=      5-min Rain = 0
KAHS 271519Z 21014KT 25/19 A2986 RMK A01 T02510193  RH  070%=      5-min Rain = 0
KAHS 271520Z 21013KT 25/20 A2986 RMK A01 T02530196  RH  071%=      5-min Rain = 0
KAHS 271521Z 20013G18KT 26/20 A2986 RMK A01 T02550199  RH  071%=      5-min Rain = 0
KAHS 271522Z 20012G17KT 26/20 A2986 RMK A01 T02560198  RH  070%=      5-min Rain = 0
KAHS 271523Z 20014KT 26/20 A2986 RMK A01 T02560196  RH  069%=      5-min Rain = 0
KAHS 271524Z 20015KT 26/20 A2986 RMK A01 T02550196  RH  070%=      5-min Rain = 0
KAHS 271525Z 20014KT 26/20 A2986 RMK A01 T02550196  RH  070%=      5-min Rain = 0
KAHS 271526Z 21015KT 25/19 A2986 RMK A01 T02540193  RH  069%=      5-min Rain = 0
KAHS 271527Z 20011KT 25/19 A2986 RMK A01 T02540194  RH  070%=      5-min Rain = 0
KAHS 271528Z 20017KT 26/20 A2986 RMK A01 T02550195  RH  069%=      5-min Rain = 0
KAHS 271529Z 21017KT 25/19 A2986 RMK A01 T02540193  RH  069%=      5-min Rain = 0
KAHS 271530Z 21017G23KT 25/19 A2986 RMK A01 T02530192  RH  069%=      5-min Rain = 0
KAHS 271531Z 21017KT 25/19 A2986 RMK A01 T02520193  RH  070%=      5-min Rain = 0
KAHS 271532Z 21015KT 25/19 A2986 RMK A01 T02510192  RH  070%=      5-min Rain = 0
KAHS 271533Z 21017KT 25/19 A2986 RMK A01 T02520194  RH  070%=      5-min Rain = 0
KAHS 271534Z 21013KT 25/19 A2986 RMK A01 T02520191  RH  069%=      5-min Rain = 0
KAHS 271535Z 22012G17KT 25/20 A2986 RMK A01 T02540195  RH  070%=      5-min Rain = 0
KAHS 271536Z 22014KT 26/20 A2986 RMK A01 T02560198  RH  070%=      5-min Rain = 0
KAHS 271537Z 21013KT 26/20 A2986 RMK A01 T02570197  RH  069%=      5-min Rain = 0
KAHS 271538Z 21017KT 26/20 A2986 RMK A01 T02580196  RH  069%=      5-min Rain = 0
KAHS 271539Z 20018KT 26/19 A2986 RMK A01 T02560193  RH  068%=      5-min Rain = 0
KAHS 271540Z 20016KT 26/20 A2986 RMK A01 T02560195  RH  069%=      5-min Rain = 0
KAHS 271541Z 20016KT 26/19 A2986 RMK A01 T02560194  RH  069%=      5-min Rain = 0
KAHS 271542Z 21016KT 26/20 A2986 RMK A01 T02560196  RH  069%=      5-min Rain = 0
KAHS 271543Z 21016G21KT 26/19 A2986 RMK A01 T02560194  RH  069%=      5-min Rain = 0
KAHS 271544Z 21017KT 26/20 A2986 RMK A01 T02560195  RH  069%=      5-min Rain = 0
KAHS 271545Z 20017KT 26/19 A2986 RMK A01 T02560194  RH  068%=      5-min Rain = 0
KAHS 271546Z 20016KT 26/19 A2986 RMK A01 T02560194  RH  069%=      5-min Rain = 0
KAHS 271547Z 21017KT 26/20 A2986 RMK A01 T02560195  RH  069%=      5-min Rain = 0
KAHS 271548Z 21014KT 26/20 A2986 RMK A01 T02570195  RH  068%=      5-min Rain = 0
KAHS 271549Z 21017KT 26/19 A2986 RMK A01 T02570194  RH  068%=      5-min Rain = 0
KAHS 271550Z 21013KT 26/19 A2986 RMK A01 T02560194  RH  068%=      5-min Rain = 0
KAHS 271551Z 21015KT 26/20 A2986 RMK A01 T02570195  RH  069%=      5-min Rain = 0
KAHS 271552Z 20013KT 26/20 A2986 RMK A01 T02570197  RH  069%=      5-min Rain = 0
KAHS 271553Z 21016KT 26/20 A2986 RMK A01 T02590196  RH  068%=      5-min Rain = 0
KAHS 271554Z 21011KT 26/20 A2986 RMK A01 T02570195  RH  068%=      5-min Rain = 0
KAHS 271555Z 21013KT 26/20 A2986 RMK A01 T02590198  RH  069%=      5-min Rain = 0
KAHS 271556Z 21013G18KT 26/20 A2986 RMK A01 T02600198  RH  068%=      5-min Rain = 0
KAHS 271557Z 21016KT 26/20 A2986 RMK A01 T02610196  RH  068%=      5-min Rain = 0
KAHS 271558Z 21013KT 26/20 A2986 RMK A01 T02600195  RH  068%=      5-min Rain = 0
KAHS 271559Z 20014KT 26/20 A2986 RMK A01 T02600196  RH  068%=      5-min Rain = 0
KAHS 271600Z 21015KT 26/20 A2986 RMK A01 T02600196  RH  068%=      5-min Rain = 0
KAHS 271601Z 22013KT 26/20 A2986 RMK A01 T02600197  RH  068%=      5-min Rain = 0
KAHS 271602Z 20016G21KT 26/20 A2986 RMK A01 T02620198  RH  068%=      5-min Rain = 0
KAHS 271603Z 20015G22KT 26/20 A2985 RMK A01 T02610195  RH  067%=      5-min Rain = 0
KAHS 271604Z 20016KT 26/20 A2986 RMK A01 T02620195  RH  067%=      5-min Rain = 0
KAHS 271605Z 21015KT 26/20 A2986 RMK A01 T02620197  RH  067%=      5-min Rain = 0
KAHS 271606Z 21013KT 26/20 A2986 RMK A01 T02620196  RH  067%=      5-min Rain = 0
KAHS 271607Z 21012G18KT 26/20 A2986 RMK A01 T02630198  RH  067%=      5-min Rain = 0
KAHS 271608Z 21012G17KT 26/20 A2985 RMK A01 T02630196  RH  067%=      5-min Rain = 0
KAHS 271609Z 22013G19KT 27/20 A2986 RMK A01 T02650199  RH  067%=      5-min Rain = 0
KAHS 271610Z 21016KT 27/20 A2986 RMK A01 T02650197  RH  066%=      5-min Rain = 0
KAHS 271611Z 21018KT 26/19 A2986 RMK A01 T02640194  RH  066%=      5-min Rain = 0
KAHS 271612Z 21015G21KT 26/19 A2986 RMK A01 T02630194  RH  066%=      5-min Rain = 0
KAHS 271613Z 22011G16KT 26/20 A2986 RMK A01 T02640197  RH  067%=      5-min Rain = 0
KAHS 271614Z 21012KT 27/20 A2986 RMK A01 T02670200  RH  067%=      5-min Rain = 0
KAHS 271615Z 22013G18KT 27/20 A2985 RMK A01 T02670197  RH  066%=      5-min Rain = 0
KAHS 271616Z 23013KT 27/20 A2985 RMK A01 T02660195  RH  065%=      5-min Rain = 0
KAHS 271617Z 22017KT 27/19 A2985 RMK A01 T02650194  RH  065%=      5-min Rain = 0
KAHS 271618Z 21016KT 27/20 A2985 RMK A01 T02650195  RH  066%=      5-min Rain = 0
KAHS 271619Z 21015KT 26/19 A2985 RMK A01 T02640193  RH  065%=      5-min Rain = 0
KAHS 271620Z 20014KT 26/19 A2985 RMK A01 T02640194  RH  065%=      5-min Rain = 0
KAHS 271621Z 20013KT 27/20 A2985 RMK A01 T02650195  RH  065%=      5-min Rain = 0
KAHS 271622Z 20016KT 27/20 A2985 RMK A01 T02660196  RH  065%=      5-min Rain = 0
KAHS 271623Z 21015KT 27/19 A2985 RMK A01 T02650194  RH  065%=      5-min Rain = 0
KAHS 271624Z 21012KT 27/19 A2985 RMK A01 T02650194  RH  065%=      5-min Rain = 0
KAHS 271625Z 21010KT 27/20 A2985 RMK A01 T02670199  RH  066%=      5-min Rain = 0
KAHS 271626Z 20014KT 27/20 A2985 RMK A01 T02690199  RH  065%=      5-min Rain = 0
KAHS 271627Z 20011G16KT 27/20 A2985 RMK A01 T02680197  RH  065%=      5-min Rain = 0
KAHS 271628Z 19012KT 27/20 A2985 RMK A01 T02710201  RH  066%=      5-min Rain = 0
KAHS 271629Z 20010KT 27/20 A2985 RMK A01 T02700199  RH  065%=      5-min Rain = 0
KAHS 271630Z 20013KT 27/20 A2985 RMK A01 T02700198  RH  065%=      5-min Rain = 0
KAHS 271631Z 22012KT 27/20 A2985 RMK A01 T02710196  RH  063%=      5-min Rain = 0
KAHS 271632Z 22014KT 27/19 A2985 RMK A01 T02710194  RH  063%=      5-min Rain = 0
KAHS 271633Z 21010KT 27/20 A2985 RMK A01 T02710196  RH  063%=      5-min Rain = 0
KAHS 271634Z 21010KT 27/20 A2985 RMK A01 T02720195  RH  063%=      5-min Rain = 0
KAHS 271635Z 22012KT 27/20 A2985 RMK A01 T02720196  RH  063%=      5-min Rain = 0
KAHS 271636Z 21013KT 27/19 A2985 RMK A01 T02710194  RH  063%=      5-min Rain = 0
KAHS 271637Z 22010KT 27/19 A2985 RMK A01 T02710194  RH  063%=      5-min Rain = 0
KAHS 271638Z 21013KT 27/20 A2985 RMK A01 T02730197  RH  063%=      5-min Rain = 0
KAHS 271639Z 20014KT 27/19 A2985 RMK A01 T02720193  RH  062%=      5-min Rain = 0
KAHS 271640Z 21014KT 27/19 A2985 RMK A01 T02710193  RH  062%=      5-min Rain = 0
KAHS 271641Z 21011KT 27/20 A2985 RMK A01 T02700195  RH  063%=      5-min Rain = 0
KAHS 271642Z 22012KT 27/20 A2985 RMK A01 T02710195  RH  063%=      5-min Rain = 0
KAHS 271643Z 22008KT 27/20 A2985 RMK A01 T02710195  RH  063%=      5-min Rain = 0
KAHS 271644Z 21010KT 27/20 A2985 RMK A01 T02730198  RH  064%=      5-min Rain = 0
KAHS 271645Z 21012KT 27/19 A2985 RMK A01 T02740194  RH  062%=      5-min Rain = 0
KAHS 271646Z 21010KT 27/19 A2985 RMK A01 T02720193  RH  062%=      5-min Rain = 0
KAHS 271647Z 21011G16KT 27/19 A2985 RMK A01 T02730194  RH  062%=      5-min Rain = 0
KAHS 271648Z 21009KT 27/20 A2985 RMK A01 T02740198  RH  063%=      5-min Rain = 0
KAHS 271649Z 19012KT 28/20 A2986 RMK A01 T02760196  RH  062%=      5-min Rain = 0
KAHS 271650Z 20014KT 28/19 A2985 RMK A01 T02750192  RH  061%=      5-min Rain = 0
KAHS 271651Z 20014KT 27/19 A2986 RMK A01 T02730192  RH  061%=      5-min Rain = 0
KAHS 271652Z 19010KT 27/20 A2986 RMK A01 T02740196  RH  062%=      5-min Rain = 0
KAHS 271653Z 19009KT 28/20 A2986 RMK A01 T02750196  RH  062%=      5-min Rain = 0
KAHS 271654Z 21009G15KT 28/20 A2986 RMK A01 T02770199  RH  063%=      5-min Rain = 0
KAHS 271655Z 22010G16KT 28/19 A2986 RMK A01 T02780193  RH  060%=      5-min Rain = 0
KAHS 271656Z 23008KT 28/19 A2986 RMK A01 T02790192  RH  059%=      5-min Rain = 0
KAHS 271657Z 21009KT 28/20 A2986 RMK A01 T02800195  RH  060%=      5-min Rain = 0
KAHS 271658Z 20010KT 28/19 A2986 RMK A01 T02810194  RH  059%=      5-min Rain = 0
KAHS 271659Z 21009KT 28/19 A2986 RMK A01 T02810193  RH  059%=      5-min Rain = 0
KAHS 271700Z 21011KT 28/19 A2986 RMK A01 T02790191  RH  059%=      5-min Rain = 0
KAHS 271701Z 20010KT 28/19 A2986 RMK A01 T02790194  RH  060%=      5-min Rain = 0
KAHS 271702Z 19011KT 28/20 A2986 RMK A01 T02790195  RH  060%=      5-min Rain = 0
KAHS 271703Z 19010KT 28/19 A2986 RMK A01 T02770192  RH  060%=      5-min Rain = 0
KAHS 271704Z 20008KT 28/19 A2986 RMK A01 T02770193  RH  060%=      5-min Rain = 0
KAHS 271705Z 19009KT 28/19 A2986 RMK A01 T02770194  RH  060%=      5-min Rain = 0
KAHS 271706Z 19009KT 28/19 A2986 RMK A01 T02790194  RH  060%=      5-min Rain = 0
KAHS 271707Z 20008KT 28/20 A2986 RMK A01 T02820198  RH  061%=      5-min Rain = 0
KAHS 271708Z 22010KT 29/20 A2986 RMK A01 T02850197  RH  059%=      5-min Rain = 0
KAHS 271709Z 21010KT 29/20 A2986 RMK A01 T02850197  RH  059%=      5-min Rain = 0
KAHS 271710Z 23012KT 28/19 A2986 RMK A01 T02840193  RH  058%=      5-min Rain = 0
KAHS 271711Z 23009KT 28/19 A2986 RMK A01 T02810189  RH  058%=      5-min Rain = 0
KAHS 271712Z 21008KT 28/19 A2986 RMK A01 T02800193  RH  059%=      5-min Rain = 0
KAHS 271713Z 23008G15KT 28/19 A2986 RMK A01 T02810194  RH  059%=      5-min Rain = 0
KAHS 271714Z 21014KT 28/20 A2986 RMK A01 T02820195  RH  059%=      5-min Rain = 0
KAHS 271715Z 20010KT 28/20 A2986 RMK A01 T02810195  RH  059%=      5-min Rain = 0
KAHS 271716Z 20009KT 28/20 A2986 RMK A01 T02810195  RH  059%=      5-min Rain = 0
KAHS 271717Z 20011G16KT 28/20 A2986 RMK A01 T02830198  RH  060%=      5-min Rain = 0
KAHS 271718Z 20013KT 28/19 A2986 RMK A01 T02820192  RH  058%=      5-min Rain = 0
KAHS 271719Z 20012KT 28/19 A2986 RMK A01 T02830193  RH  058%=      5-min Rain = 0
KAHS 271720Z 20011KT 28/19 A2986 RMK A01 T02820190  RH  057%=      5-min Rain = 0
KAHS 271721Z 22011KT 28/19 A2986 RMK A01 T02830192  RH  058%=      5-min Rain = 0
KAHS 271722Z 22010KT 28/19 A2986 RMK A01 T02820189  RH  057%=      5-min Rain = 0
KAHS 271723Z 22007KT 28/19 A2986 RMK A01 T02810191  RH  058%=      5-min Rain = 0
KAHS 271724Z 20009G14KT 28/20 A2986 RMK A01 T02840195  RH  058%=      5-min Rain = 0
KAHS 271725Z 21011KT 28/19 A2985 RMK A01 T02840190  RH  057%=      5-min Rain = 0
KAHS 271726Z 20011KT 28/19 A2986 RMK A01 T02820191  RH  058%=      5-min Rain = 0
KAHS 271727Z 21010KT 28/20 A2986 RMK A01 T02840195  RH  058%=      5-min Rain = 0
KAHS 271728Z 23014KT 28/19 A2985 RMK A01 T02840187  RH  055%=      5-min Rain = 0
KAHS 271729Z 23010G15KT 28/19 A2985 RMK A01 T02830187  RH  056%=      5-min Rain = 0
KAHS 271730Z 23007KT 29/19 A2985 RMK A01 T02860193  RH  057%=      5-min Rain = 0
KAHS 271731Z 24008KT 29/19 A2985 RMK A01 T02880193  RH  056%=      5-min Rain = 0
KAHS 271732Z 24008KT 29/20 A2985 RMK A01 T02890195  RH  057%=      5-min Rain = 0
KAHS 271733Z 23011KT 29/20 A2985 RMK A01 T02920197  RH  057%=      5-min Rain = 0
KAHS 271734Z 23011KT 29/19 A2985 RMK A01 T02880189  RH  055%=      5-min Rain = 0
KAHS 271735Z 24010KT 29/19 A2985 RMK A01 T02870191  RH  056%=      5-min Rain = 0
KAHS 271736Z 23015KT 29/19 A2985 RMK A01 T02870189  RH  055%=      5-min Rain = 0
KAHS 271737Z 22010KT 29/19 A2985 RMK A01 T02860188  RH  055%=      5-min Rain = 0
KAHS 271738Z 21010KT 29/19 A2985 RMK A01 T02870191  RH  056%=      5-min Rain = 0
KAHS 271739Z 21010KT 29/19 A2985 RMK A01 T02880190  RH  055%=      5-min Rain = 0
KAHS 271740Z 21011KT 29/19 A2985 RMK A01 T02880189  RH  055%=      5-min Rain = 0
KAHS 271741Z 21011KT 29/19 A2985 RMK A01 T02880190  RH  056%=      5-min Rain = 0
KAHS 271742Z 22012KT 29/19 A2985 RMK A01 T02870189  RH  055%=      5-min Rain = 0
KAHS 271743Z 22012G18KT 29/19 A2985 RMK A01 T02860191  RH  056%=      5-min Rain = 0
KAHS 271744Z 21013KT 29/19 A2985 RMK A01 T02850188  RH  055%=      5-min Rain = 0
KAHS 271745Z 19013KT 29/19 A2985 RMK A01 T02850189  RH  056%=      5-min Rain = 0
KAHS 271746Z 20011KT 29/19 A2985 RMK A01 T02860190  RH  056%=      5-min Rain = 0
KAHS 271747Z 20012KT 29/19 A2985 RMK A01 T02860190  RH  056%=      5-min Rain = 0
KAHS 271748Z 23013KT 29/19 A2985 RMK A01 T02870189  RH  056%=      5-min Rain = 0
KAHS 271749Z 22011KT 29/19 A2985 RMK A01 T02870189  RH  056%=      5-min Rain = 0
KAHS 271750Z 20011KT 29/19 A2985 RMK A01 T02890194  RH  056%=      5-min Rain = 0
KAHS 271751Z 21012G18KT 29/19 A2985 RMK A01 T02890191  RH  055%=      5-min Rain = 0
KAHS 271752Z 20014KT 29/19 A2985 RMK A01 T02880186  RH  054%=      5-min Rain = 0
KAHS 271753Z 21013KT 29/19 A2985 RMK A01 T02880187  RH  055%=      5-min Rain = 0
KAHS 271754Z 20012KT 29/19 A2985 RMK A01 T02880186  RH  054%=      5-min Rain = 0
KAHS 271755Z 21011KT 29/19 A2985 RMK A01 T02890188  RH  054%=      5-min Rain = 0
KAHS 271756Z 23013KT 29/19 A2985 RMK A01 T02900187  RH  054%=      5-min Rain = 0
KAHS 271757Z 21011KT 29/19 A2985 RMK A01 T02890188  RH  054%=      5-min Rain = 0
KAHS 271758Z 21009KT 29/19 A2985 RMK A01 T02900191  RH  055%=      5-min Rain = 0
KAHS 271759Z 22013KT 29/19 A2984 RMK A01 T02910191  RH  055%=      5-min Rain = 0
KAHS 271800Z 23013KT 29/19 A2984 RMK A01 T02900189  RH  054%=      5-min Rain = 0
KAHS 271801Z 23013KT 29/19 A2984 RMK A01 T02920191  RH  055%=      5-min Rain = 0
KAHS 271802Z 23014KT 29/19 A2984 RMK A01 T02920187  RH  053%=      5-min Rain = 0
KAHS 271803Z 22011KT 29/19 A2984 RMK A01 T02900185  RH  053%=      5-min Rain = 0
KAHS 271804Z 21013KT 29/19 A2984 RMK A01 T02910191  RH  055%=      5-min Rain = 0
KAHS 271805Z 21013KT 29/19 A2984 RMK A01 T02910187  RH  053%=      5-min Rain = 0
KAHS 271806Z 21010KT 29/19 A2984 RMK A01 T02910185  RH  053%=      5-min Rain = 0
KAHS 271807Z 22012KT 29/19 A2984 RMK A01 T02930188  RH  053%=      5-min Rain = 0
KAHS 271808Z 23011KT 29/19 A2984 RMK A01 T02930189  RH  053%=      5-min Rain = 0
KAHS 271809Z 20012KT 29/19 A2984 RMK A01 T02930190  RH  054%=      5-min Rain = 0
KAHS 271810Z 21010KT 29/19 A2984 RMK A01 T02910185  RH  053%=      5-min Rain = 0
KAHS 271811Z 21009KT 29/19 A2984 RMK A01 T02930190  RH  054%=      5-min Rain = 0
KAHS 271812Z 22009KT 29/19 A2984 RMK A01 T02940189  RH  053%=      5-min Rain = 0
KAHS 271813Z 23010KT 30/19 A2984 RMK A01 T02960192  RH  054%=      5-min Rain = 0
KAHS 271814Z 19012KT 30/19 A2984 RMK A01 T02970194  RH  054%=      5-min Rain = 0
KAHS 271815Z 20012KT 30/19 A2984 RMK A01 T02960190  RH  053%=      5-min Rain = 0
KAHS 271816Z 21009KT 29/19 A2984 RMK A01 T02940190  RH  053%=      5-min Rain = 0
KAHS 271817Z 20009KT 30/19 A2984 RMK A01 T02950192  RH  054%=      5-min Rain = 0
KAHS 271818Z 21011KT 30/19 A2984 RMK A01 T02960191  RH  053%=      5-min Rain = 0
KAHS 271819Z 22011KT 30/19 A2984 RMK A01 T02970187  RH  052%=      5-min Rain = 0
KAHS 271820Z 23009KT 30/19 A2984 RMK A01 T02970186  RH  052%=      5-min Rain = 0
KAHS 271821Z 23010KT 30/19 A2984 RMK A01 T02980190  RH  052%=      5-min Rain = 0
KAHS 271822Z 24011KT 30/19 A2984 RMK A01 T02980187  RH  051%=      5-min Rain = 0
KAHS 271823Z 24011KT 30/19 A2983 RMK A01 T02970186  RH  051%=      5-min Rain = 0
KAHS 271824Z 23009KT 30/19 A2983 RMK A01 T02960188  RH  052%=      5-min Rain = 0
KAHS 271825Z 22006G11KT 30/19 A2983 RMK A01 T02960192  RH  054%=      5-min Rain = 0
KAHS 271826Z 21006KT 30/19 A2983 RMK A01 T02990194  RH  053%=      5-min Rain = 0
KAHS 271827Z 19010KT 30/19 A2983 RMK A01 T03000192  RH  052%=      5-min Rain = 0
KAHS 271828Z 19009KT 30/18 A2983 RMK A01 T02990183  RH  050%=      5-min Rain = 0
KAHS 271829Z 19010KT 30/19 A2983 RMK A01 T02990187  RH  051%=      5-min Rain = 0
KAHS 271830Z 22010KT 30/19 A2983 RMK A01 T03000186  RH  051%=      5-min Rain = 0
KAHS 271831Z 20009KT 30/19 A2983 RMK A01 T02990188  RH  052%=      5-min Rain = 0
KAHS 271832Z 21010KT 30/19 A2983 RMK A01 T02990191  RH  052%=      5-min Rain = 0
KAHS 271833Z 21011KT 30/19 A2983 RMK A01 T03010185  RH  050%=      5-min Rain = 0
KAHS 271834Z 22007KT 30/18 A2983 RMK A01 T03000181  RH  049%=      5-min Rain = 0
KAHS 271835Z 23010KT 30/18 A2983 RMK A01 T03010183  RH  050%=      5-min Rain = 0
KAHS 271836Z 22008KT 30/18 A2983 RMK A01 T03000183  RH  050%=      5-min Rain = 0
KAHS 271837Z 23008G13KT 30/19 A2983 RMK A01 T03030186  RH  050%=      5-min Rain = 0
KAHS 271838Z 23010KT 30/18 A2982 RMK A01 T03040175  RH  046%=      5-min Rain = 0
KAHS 271839Z 22010G15KT 30/17 A2982 RMK A01 T03040173  RH  045%=      5-min Rain = 0
KAHS 271840Z 22010KT 30/17 A2982 RMK A01 T03030174  RH  046%=      5-min Rain = 0
KAHS 271841Z 23012KT 30/17 A2982 RMK A01 T03020174  RH  046%=      5-min Rain = 0
KAHS 271842Z 23010KT 30/18 A2982 RMK A01 T03020178  RH  047%=      5-min Rain = 0
KAHS 271843Z 23010KT 30/18 A2982 RMK A01 T03030178  RH  047%=      5-min Rain = 0
KAHS 271844Z 22007KT 30/18 A2982 RMK A01 T03010177  RH  047%=      5-min Rain = 0
KAHS 271845Z 23006KT 30/18 A2982 RMK A01 T03020181  RH  048%=      5-min Rain = 0
KAHS 271846Z 19007KT 30/18 A2982 RMK A01 T03030180  RH  048%=      5-min Rain = 0
KAHS 271847Z 21011KT 30/19 A2982 RMK A01 T03040187  RH  049%=      5-min Rain = 0
KAHS 271848Z 23008G13KT 31/18 A2982 RMK A01 T03050182  RH  048%=      5-min Rain = 0
KAHS 271849Z 23009KT 31/18 A2982 RMK A01 T03050184  RH  048%=      5-min Rain = 0
KAHS 271850Z 22009KT 30/18 A2981 RMK A01 T03040183  RH  048%=      5-min Rain = 0
KAHS 271851Z 20010KT 31/19 A2981 RMK A01 T03050188  RH  049%=      5-min Rain = 0
KAHS 271852Z 19010KT 31/19 A2981 RMK A01 T03060186  RH  049%=      5-min Rain = 0
KAHS 271853Z 19010KT 30/18 A2981 RMK A01 T03040181  RH  048%=      5-min Rain = 0
KAHS 271854Z 19009KT 30/18 A2981 RMK A01 T03030180  RH  048%=      5-min Rain = 0
KAHS 271855Z 19007KT 30/18 A2981 RMK A01 T03030182  RH  048%=      5-min Rain = 0
KAHS 271856Z 18008KT 31/19 A2981 RMK A01 T03050185  RH  049%=      5-min Rain = 0
KAHS 271857Z 19011KT 31/18 A2981 RMK A01 T03050182  RH  048%=      5-min Rain = 0
KAHS 271858Z 20008KT 31/18 A2981 RMK A01 T03060182  RH  048%=      5-min Rain = 0
KAHS 271859Z 19009KT 31/19 A2981 RMK A01 T03080185  RH  048%=      5-min Rain = 0
KAHS 271900Z 18010KT 31/18 A2981 RMK A01 T03100184  RH  047%=      5-min Rain = 0
KAHS 271901Z 18012KT 31/18 A2981 RMK A01 T03100177  RH  045%=      5-min Rain = 0
KAHS 271902Z 19012KT 31/18 A2981 RMK A01 T03100181  RH  046%=      5-min Rain = 0
KAHS 271903Z 18010KT 31/18 A2981 RMK A01 T03090182  RH  047%=      5-min Rain = 0
KAHS 271904Z 18012KT 31/18 A2981 RMK A01 T03070177  RH  046%=      5-min Rain = 0
KAHS 271905Z 19012KT 31/18 A2981 RMK A01 T03050177  RH  046%=      5-min Rain = 0
KAHS 271906Z 17011KT 31/18 A2981 RMK A01 T03060180  RH  047%=      5-min Rain = 0
KAHS 271907Z 16009KT 31/18 A2981 RMK A01 T03070178  RH  046%=      5-min Rain = 0
KAHS 271908Z 18008KT 31/18 A2981 RMK A01 T03080182  RH  047%=      5-min Rain = 0
KAHS 271909Z 17011KT 31/19 A2981 RMK A01 T03090188  RH  048%=      5-min Rain = 0
KAHS 271910Z 17011KT 31/18 A2981 RMK A01 T03090183  RH  047%=      5-min Rain = 0
KAHS 271911Z 17008KT 31/18 A2981 RMK A01 T03070182  RH  047%=      5-min Rain = 0
KAHS 271912Z 17010KT 31/18 A2981 RMK A01 T03060182  RH  047%=      5-min Rain = 0
KAHS 271913Z 17009KT 31/18 A2981 RMK A01 T03060180  RH  047%=      5-min Rain = 0
KAHS 271914Z 17008KT 31/18 A2981 RMK A01 T03060184  RH  048%=      5-min Rain = 0
KAHS 271915Z 17007KT 31/18 A2981 RMK A01 T03060182  RH  047%=      5-min Rain = 0
KAHS 271916Z 16004KT 31/19 A2981 RMK A01 T03080185  RH  048%=      5-min Rain = 0
KAHS 271917Z 22008KT 31/19 A298 RMK A01 T03120192  RH  049%=      5-min Rain = 0
KAHS 271918Z 20011KT 31/19 A2981 RMK A01 T03140185  RH  046%=      5-min Rain = 0
KAHS 271919Z 19010KT 31/18 A2981 RMK A01 T03120180  RH  045%=      5-min Rain = 0
KAHS 271920Z 19010KT 31/18 A2981 RMK A01 T03110180  RH  046%=      5-min Rain = 0
KAHS 271921Z 19009KT 31/18 A2981 RMK A01 T03110182  RH  046%=      5-min Rain = 0
KAHS 271922Z 18008KT 31/18 A2981 RMK A01 T03120183  RH  046%=      5-min Rain = 0
KAHS 271923Z 18010KT 31/18 A298 RMK A01 T03130180  RH  045%=      5-min Rain = 0
KAHS 271924Z 18008KT 31/18 A2981 RMK A01 T03110177  RH  045%=      5-min Rain = 0
KAHS 271925Z 17009KT 31/18 A2981 RMK A01 T03130179  RH  045%=      5-min Rain = 0
KAHS 271926Z 17007KT 31/17 A2981 RMK A01 T03130172  RH  043%=      5-min Rain = 0
KAHS 271927Z 17007KT 31/18 A298 RMK A01 T03140180  RH  045%=      5-min Rain = 0
KAHS 271928Z 16008KT 32/18 A298 RMK A01 T03160181  RH  045%=      5-min Rain = 0
KAHS 271929Z 18006KT 32/18 A298 RMK A01 T03170184  RH  045%=      5-min Rain = 0
KAHS 271930Z 17010KT 32/18 A298 RMK A01 T03170183  RH  045%=      5-min Rain = 0
KAHS 271931Z 16010KT 32/18 A298 RMK A01 T03160177  RH  044%=      5-min Rain = 0
KAHS 271932Z 17010KT 32/18 A298 RMK A01 T03160178  RH  044%=      5-min Rain = 0
KAHS 271933Z 17011KT 32/18 A298 RMK A01 T03150176  RH  043%=      5-min Rain = 0
KAHS 271934Z 17010KT 31/18 A298 RMK A01 T03140177  RH  044%=      5-min Rain = 0
KAHS 271935Z 18008KT 31/18 A298 RMK A01 T03140176  RH  044%=      5-min Rain = 0
KAHS 271936Z 17006KT 32/18 A298 RMK A01 T03150177  RH  044%=      5-min Rain = 0
KAHS 271937Z 18005KT 32/18 A298 RMK A01 T03160178  RH  044%=      5-min Rain = 0
KAHS 271938Z 16004KT 32/18 A298 RMK A01 T03170181  RH  045%=      5-min Rain = 0
KAHS 271939Z 18006KT 32/19 A298 RMK A01 T03190186  RH  045%=      5-min Rain = 0
KAHS 271940Z 20008KT 32/19 A298 RMK A01 T03210188  RH  045%=      5-min Rain = 0
KAHS 271941Z 20009KT 32/18 A298 RMK A01 T03200182  RH  044%=      5-min Rain = 0
KAHS 271942Z 20009KT 32/18 A2979 RMK A01 T03190181  RH  044%=      5-min Rain = 0
KAHS 271943Z 22009KT 32/17 A298 RMK A01 T03180172  RH  042%=      5-min Rain = 0
KAHS 271944Z 23009KT 32/16 A298 RMK A01 T03170160  RH  039%=      5-min Rain = 0
KAHS 271945Z 20009KT 32/18 A298 RMK A01 T03180179  RH  044%=      5-min Rain = 0
KAHS 271946Z 18009KT 32/18 A298 RMK A01 T03190182  RH  044%=      5-min Rain = 0
KAHS 271947Z 19008KT 32/18 A2979 RMK A01 T03170177  RH  043%=      5-min Rain = 0
KAHS 271948Z 21006KT 32/18 A2979 RMK A01 T03150178  RH  044%=      5-min Rain = 0
KAHS 271949Z 20008G13KT 32/19 A2979 RMK A01 T03180187  RH  046%=      5-min Rain = 0
KAHS 271950Z 19010KT 32/18 A2979 RMK A01 T03180184  RH  045%=      5-min Rain = 0
KAHS 271951Z 18010KT 32/18 A2979 RMK A01 T03180183  RH  045%=      5-min Rain = 0
KAHS 271952Z 18007KT 32/18 A2979 RMK A01 T03190181  RH  044%=      5-min Rain = 0
KAHS 271953Z 18010KT 32/18 A2979 RMK A01 T03200181  RH  043%=      5-min Rain = 0
KAHS 271954Z 18011KT 32/18 A2979 RMK A01 T03200180  RH  043%=      5-min Rain = 0
KAHS 271955Z 17010KT 32/18 A2979 RMK A01 T03190177  RH  043%=      5-min Rain = 0
KAHS 271956Z 18008KT 32/18 A2979 RMK A01 T03200176  RH  042%=      5-min Rain = 0
KAHS 271957Z 18010KT 32/17 A2979 RMK A01 T03190173  RH  042%=      5-min Rain = 0
KAHS 271958Z 17012KT 32/17 A2979 RMK A01 T03190174  RH  042%=      5-min Rain = 0
KAHS 271959Z 18010KT 32/17 A2979 RMK A01 T03180170  RH  041%=      5-min Rain = 0
KAHS 272000Z 19007KT 32/18 A2979 RMK A01 T03170175  RH  043%=      5-min Rain = 0
KAHS 272001Z 19008KT 32/17 A2979 RMK A01 T03170174  RH  042%=      5-min Rain = 0
KAHS 272002Z 20006KT 32/17 A2979 RMK A01 T03170173  RH  042%=      5-min Rain = 0
KAHS 272003Z 17009KT 32/18 A2979 RMK A01 T03190180  RH  044%=      5-min Rain = 0
KAHS 272004Z 17010KT 32/17 A2979 RMK A01 T03190168  RH  041%=      5-min Rain = 0
KAHS 272005Z 19010KT 32/17 A2979 RMK A01 T03180172  RH  042%=      5-min Rain = 0
KAHS 272006Z 19011KT 32/17 A2979 RMK A01 T03180168  RH  041%=      5-min Rain = 0
KAHS 272007Z 19011KT 32/17 A2979 RMK A01 T03170167  RH  041%=      5-min Rain = 0
KAHS 272008Z 20009KT 32/17 A2979 RMK A01 T03160169  RH  041%=      5-min Rain = 0
KAHS 272009Z 18006KT 32/17 A2979 RMK A01 T03160170  RH  042%=      5-min Rain = 0
KAHS 272010Z 17008KT 32/18 A2979 RMK A01 T03180179  RH  043%=      5-min Rain = 0
KAHS 272011Z 18010KT 32/18 A2979 RMK A01 T03210183  RH  044%=      5-min Rain = 0
KAHS 272012Z 18011KT 32/18 A2978 RMK A01 T03210183  RH  044%=      5-min Rain = 0
KAHS 272013Z 18010KT 32/18 A2978 RMK A01 T03210182  RH  044%=      5-min Rain = 0
KAHS 272014Z 19010KT 32/18 A2978 RMK A01 T03210184  RH  044%=      5-min Rain = 0
KAHS 272015Z 19009KT 32/19 A2978 RMK A01 T03220188  RH  045%=      5-min Rain = 0
KAHS 272016Z 19010KT 32/18 A2978 RMK A01 T03200177  RH  043%=      5-min Rain = 0
KAHS 272017Z 18009KT 32/18 A2978 RMK A01 T03180179  RH  044%=      5-min Rain = 0
KAHS 272018Z 16011KT 32/19 A2978 RMK A01 T03180185  RH  045%=      5-min Rain = 0
KAHS 272019Z 16010KT 32/19 A2978 RMK A01 T03190188  RH  046%=      5-min Rain = 0
KAHS 272020Z 15011KT 32/19 A2978 RMK A01 T03210189  RH  046%=      5-min Rain = 0
KAHS 272021Z 15013KT 32/19 A2978 RMK A01 T03210187  RH  045%=      5-min Rain = 0
KAHS 272022Z 16010KT 32/19 A2978 RMK A01 T03210189  RH  046%=      5-min Rain = 0
KAHS 272023Z 17011KT 32/19 A2978 RMK A01 T03210188  RH  045%=      5-min Rain = 0
KAHS 272024Z 16012G17KT 32/19 A2978 RMK A01 T03220186  RH  045%=      5-min Rain = 0
KAHS 272025Z 17013KT 32/19 A2978 RMK A01 T03210186  RH  045%=      5-min Rain = 0
KAHS 272026Z 18012KT 32/19 A2978 RMK A01 T03190185  RH  045%=      5-min Rain = 0
KAHS 272027Z 17011KT 32/19 A2977 RMK A01 T03190186  RH  045%=      5-min Rain = 0
KAHS 272028Z 19010KT 32/19 A2978 RMK A01 T03200189  RH  046%=      5-min Rain = 0
KAHS 272029Z 18011KT 32/19 A2977 RMK A01 T03200185  RH  045%=      5-min Rain = 0
KAHS 272030Z 19012KT 32/18 A2977 RMK A01 T03180181  RH  044%=      5-min Rain = 0
KAHS 272031Z 20008KT 32/18 A2977 RMK A01 T03160181  RH  045%=      5-min Rain = 0
KAHS 272032Z 19013KT 32/18 A2977 RMK A01 T03160176  RH  043%=      5-min Rain = 0
KAHS 272033Z 19011KT 32/17 A2977 RMK A01 T03160170  RH  042%=      5-min Rain = 0
KAHS 272034Z 19009KT 32/18 A2977 RMK A01 T03170175  RH  043%=      5-min Rain = 0
KAHS 272035Z 19010KT 32/18 A2977 RMK A01 T03190177  RH  043%=      5-min Rain = 0
KAHS 272036Z 18010KT 32/18 A2977 RMK A01 T03200178  RH  043%=      5-min Rain = 0
KAHS 272037Z 18008KT 32/17 A2977 RMK A01 T03210173  RH  041%=      5-min Rain = 0
KAHS 272038Z 17009KT 32/18 A2977 RMK A01 T03230178  RH  042%=      5-min Rain = 0
KAHS 272039Z 19009KT 32/18 A2977 RMK A01 T03240179  RH  042%=      5-min Rain = 0
KAHS 272040Z 18008KT 32/18 A2977 RMK A01 T03220178  RH  042%=      5-min Rain = 0
KAHS 272041Z 20010KT 32/19 A2977 RMK A01 T03220185  RH  044%=      5-min Rain = 0
KAHS 272042Z 19012KT 32/18 A2977 RMK A01 T03200180  RH  043%=      5-min Rain = 0
KAHS 272043Z 17013KT 32/18 A2977 RMK A01 T03190180  RH  043%=      5-min Rain = 0
KAHS 272044Z 18012KT 32/18 A2977 RMK A01 T03190177  RH  043%=      5-min Rain = 0
KAHS 272045Z 17012KT 32/17 A2977 RMK A01 T03180171  RH  041%=      5-min Rain = 0
KAHS 272046Z 17009G14KT 32/17 A2977 RMK A01 T03180172  RH  042%=      5-min Rain = 0
KAHS 272047Z 18012KT 32/18 A2977 RMK A01 T03200175  RH  042%=      5-min Rain = 0
KAHS 272048Z 18011KT 32/17 A2976 RMK A01 T03180174  RH  042%=      5-min Rain = 0
KAHS 272049Z 17011KT 32/18 A2976 RMK A01 T03190179  RH  043%=      5-min Rain = 0
KAHS 272050Z 17011KT 32/18 A2976 RMK A01 T03210177  RH  042%=      5-min Rain = 0
KAHS 272051Z 18012KT 32/17 A2976 RMK A01 T03210171  RH  041%=      5-min Rain = 0
KAHS 272052Z 18012KT 32/17 A2976 RMK A01 T03200171  RH  041%=      5-min Rain = 0
KAHS 272053Z 19011KT 32/17 A2976 RMK A01 T03200167  RH  040%=      5-min Rain = 0
KAHS 272054Z 18010G15KT 32/17 A2976 RMK A01 T03210168  RH  040%=      5-min Rain = 0
KAHS 272055Z 17011KT 32/17 A2976 RMK A01 T03210168  RH  040%=      5-min Rain = 0
KAHS 272056Z 19013KT 32/17 A2976 RMK A01 T03210170  RH  040%=      5-min Rain = 0
KAHS 272057Z 18010G15KT 32/16 A2976 RMK A01 T03190164  RH  039%=      5-min Rain = 0
KAHS 272058Z 19011KT 32/17 A2976 RMK A01 T03180170  RH  041%=      5-min Rain = 0
KAHS 272059Z 19009KT 32/18 A2976 RMK A01 T03190176  RH  043%=      5-min Rain = 0
KAHS 272100Z 19009KT 32/18 A2976 RMK A01 T03210177  RH  042%=      5-min Rain = 0
KAHS 272101Z 19011KT 32/17 A2976 RMK A01 T03210173  RH  041%=      5-min Rain = 0
KAHS 272102Z 19011KT 32/17 A2976 RMK A01 T03200171  RH  041%=      5-min Rain = 0
KAHS 272103Z 19011KT 32/18 A2975 RMK A01 T03190177  RH  043%=      5-min Rain = 0
KAHS 272104Z 19010KT 32/18 A2975 RMK A01 T03190182  RH  044%=      5-min Rain = 0
KAHS 272105Z 19010KT 32/18 A2975 RMK A01 T03180181  RH  044%=      5-min Rain = 0
KAHS 272106Z 20011G16KT 32/19 A2975 RMK A01 T03190187  RH  046%=      5-min Rain = 0
KAHS 272107Z 19013KT 32/19 A2975 RMK A01 T03190187  RH  046%=      5-min Rain = 0
KAHS 272108Z 18012KT 32/19 A2975 RMK A01 T03190187  RH  046%=      5-min Rain = 0
KAHS 272109Z 17011KT 32/19 A2975 RMK A01 T03190188  RH  046%=      5-min Rain = 0
KAHS 272110Z 16010KT 32/18 A2975 RMK A01 T03190182  RH  044%=      5-min Rain = 0
KAHS 272111Z 17008KT 32/19 A2975 RMK A01 T03210190  RH  046%=      5-min Rain = 0
KAHS 272112Z 17008KT 32/19 A2975 RMK A01 T03240188  RH  044%=      5-min Rain = 0
KAHS 272113Z 17008KT 33/19 A2975 RMK A01 T03260189  RH  044%=      5-min Rain = 0
KAHS 272114Z 18011KT 33/19 A2975 RMK A01 T03260188  RH  044%=      5-min Rain = 0
KAHS 272115Z 18011KT 32/18 A2975 RMK A01 T03220180  RH  043%=      5-min Rain = 0
KAHS 272116Z 18013G20KT 32/18 A2975 RMK A01 T03200182  RH  044%=      5-min Rain = 0
KAHS 272117Z 18013KT 32/19 A2975 RMK A01 T03190185  RH  045%=      5-min Rain = 0
KAHS 272118Z 18013KT 32/19 A2975 RMK A01 T03190185  RH  045%=      5-min Rain = 0
KAHS 272119Z 19010KT 32/19 A2975 RMK A01 T03200187  RH  045%=      5-min Rain = 0
KAHS 272120Z 18011KT 32/19 A2974 RMK A01 T03220189  RH  045%=      5-min Rain = 0
KAHS 272121Z 17015G22KT 32/19 A2974 RMK A01 T03220187  RH  045%=      5-min Rain = 0
KAHS 272122Z 17011KT 32/19 A2974 RMK A01 T03220192  RH  046%=      5-min Rain = 0
KAHS 272123Z 18014KT 32/19 A2974 RMK A01 T03230188  RH  045%=      5-min Rain = 0
KAHS 272124Z 17009KT 32/19 A2974 RMK A01 T03220189  RH  045%=      5-min Rain = 0
KAHS 272125Z 19008KT 32/19 A2974 RMK A01 T03230194  RH  047%=      5-min Rain = 0
KAHS 272126Z 18008KT 32/19 A2974 RMK A01 T03240191  RH  045%=      5-min Rain = 0
KAHS 272127Z 18008G13KT 33/19 A2974 RMK A01 T03250191  RH  045%=      5-min Rain = 0
KAHS 272128Z 17009KT 33/19 A2974 RMK A01 T03250193  RH  046%=      5-min Rain = 0
KAHS 272129Z 17009KT 33/20 A2974 RMK A01 T03250196  RH  046%=      5-min Rain = 0
KAHS 272130Z 16010KT 33/20 A2974 RMK A01 T03250197  RH  047%=      5-min Rain = 0
KAHS 272131Z 15011KT 32/19 A2974 RMK A01 T03240193  RH  046%=      5-min Rain = 0
KAHS 272132Z 14009KT 32/19 A2974 RMK A01 T03220191  RH  046%=      5-min Rain = 0
KAHS 272133Z 15008KT 32/19 A2974 RMK A01 T03230190  RH  046%=      5-min Rain = 0
KAHS 272134Z 15009KT 32/19 A2974 RMK A01 T03230188  RH  045%=      5-min Rain = 0
KAHS 272135Z 15012G17KT 32/19 A2973 RMK A01 T03220186  RH  045%=      5-min Rain = 0
KAHS 272136Z 16014KT 32/19 A2973 RMK A01 T03210190  RH  046%=      5-min Rain = 0
KAHS 272137Z 17011KT 32/19 A2973 RMK A01 T03210190  RH  046%=      5-min Rain = 0
KAHS 272138Z 17013KT 32/19 A2973 RMK A01 T03200188  RH  046%=      5-min Rain = 0
KAHS 272139Z 17014KT 32/19 A2973 RMK A01 T03190188  RH  046%=      5-min Rain = 0
KAHS 272140Z 16015G21KT 32/19 A2973 RMK A01 T03190188  RH  046%=      5-min Rain = 0
KAHS 272141Z 16012KT 32/19 A2973 RMK A01 T03190186  RH  045%=      5-min Rain = 0
KAHS 272142Z 15012KT 32/19 A2973 RMK A01 T03200188  RH  046%=      5-min Rain = 0
KAHS 272143Z 15011KT 32/19 A2973 RMK A01 T03200186  RH  045%=      5-min Rain = 0
KAHS 272144Z 16011KT 32/19 A2973 RMK A01 T03190188  RH  046%=      5-min Rain = 0
KAHS 272145Z 16011KT 32/19 A2973 RMK A01 T03200191  RH  046%=      5-min Rain = 0
KAHS 272146Z 15012KT 32/19 A2973 RMK A01 T03210190  RH  046%=      5-min Rain = 0
KAHS 272147Z 15015KT 32/19 A2973 RMK A01 T03200187  RH  045%=      5-min Rain = 0
KAHS 272148Z 16014KT 32/19 A2973 RMK A01 T03200187  RH  045%=      5-min Rain = 0
KAHS 272149Z 16012KT 32/18 A2973 RMK A01 T03200184  RH  045%=      5-min Rain = 0
KAHS 272150Z 16011KT 32/19 A2973 RMK A01 T03190186  RH  045%=      5-min Rain = 0
KAHS 272151Z 15012KT 32/18 A2973 RMK A01 T03200184  RH  044%=      5-min Rain = 0
KAHS 272152Z 15012KT 32/18 A2973 RMK A01 T03200184  RH  044%=      5-min Rain = 0
KAHS 272153Z 16018KT 32/18 A2973 RMK A01 T03200181  RH  044%=      5-min Rain = 0
KAHS 272154Z 16015KT 32/18 A2973 RMK A01 T03190179  RH  043%=      5-min Rain = 0
KAHS 272155Z 16013G18KT 32/18 A2973 RMK A01 T03190180  RH  043%=      5-min Rain = 0
KAHS 272156Z 16012KT 32/18 A2973 RMK A01 T03200181  RH  043%=      5-min Rain = 0
KAHS 272157Z 16010KT 32/18 A2973 RMK A01 T03210184  RH  044%=      5-min Rain = 0
KAHS 272158Z 18012KT 32/19 A2973 RMK A01 T03220185  RH  044%=      5-min Rain = 0
KAHS 272159Z 19013KT 32/18 A2973 RMK A01 T03220182  RH  043%=      5-min Rain = 0
KAHS 272200Z 18012KT 32/18 A2973 RMK A01 T03210182  RH  044%=      5-min Rain = 0
KAHS 272201Z 17015KT 32/18 A2973 RMK A01 T03210181  RH  043%=      5-min Rain = 0
KAHS 272202Z 18013KT 32/18 A2973 RMK A01 T03210177  RH  042%=      5-min Rain = 0
KAHS 272203Z 17013KT 32/18 A2973 RMK A01 T03200177  RH  043%=      5-min Rain = 0
KAHS 272204Z 17011KT 32/18 A2973 RMK A01 T03190176  RH  043%=      5-min Rain = 0
KAHS 272205Z 17011KT 32/18 A2973 RMK A01 T03200179  RH  043%=      5-min Rain = 0
KAHS 272206Z 17012KT 32/18 A2973 RMK A01 T03190182  RH  044%=      5-min Rain = 0
KAHS 272207Z 16010KT 32/18 A2973 RMK A01 T03190183  RH  044%=      5-min Rain = 0
KAHS 272208Z 15016G21KT 32/18 A2973 RMK A01 T03190180  RH  044%=      5-min Rain = 0
KAHS 272209Z 15017KT 32/17 A2973 RMK A01 T03190173  RH  042%=      5-min Rain = 0
KAHS 272210Z 16011G16KT 32/17 A2973 RMK A01 T03190173  RH  042%=      5-min Rain = 0
KAHS 272211Z 17012KT 32/18 A2973 RMK A01 T03210175  RH  042%=      5-min Rain = 0
KAHS 272212Z 18011KT 32/18 A2973 RMK A01 T03220176  RH  042%=      5-min Rain = 0
KAHS 272213Z 17014KT 32/17 A2973 RMK A01 T03220173  RH  041%=      5-min Rain = 0
KAHS 272214Z 17010KT 32/18 A2973 RMK A01 T03230175  RH  041%=      5-min Rain = 0
KAHS 272215Z 17013KT 32/18 A2973 RMK A01 T03240176  RH  041%=      5-min Rain = 0
KAHS 272216Z 16012KT 32/17 A2972 RMK A01 T03220171  RH  040%=      5-min Rain = 0
KAHS 272217Z 16012G17KT 32/18 A2972 RMK A01 T03210177  RH  042%=      5-min Rain = 0
KAHS 272218Z 16012KT 32/18 A2973 RMK A01 T03210182  RH  044%=      5-min Rain = 0
KAHS 272219Z 16008KT 32/19 A2973 RMK A01 T03220186  RH  045%=      5-min Rain = 0
KAHS 272220Z 17012KT 32/19 A2972 RMK A01 T03230188  RH  045%=      5-min Rain = 0
KAHS 272221Z 17011KT 32/19 A2972 RMK A01 T03210187  RH  045%=      5-min Rain = 0
KAHS 272222Z 17011KT 32/19 A2972 RMK A01 T03210188  RH  045%=      5-min Rain = 0
KAHS 272223Z 15010KT 32/19 A2972 RMK A01 T03210191  RH  046%=      5-min Rain = 0
KAHS 272224Z 16011KT 32/19 A2972 RMK A01 T03210192  RH  046%=      5-min Rain = 0
KAHS 272225Z 17008KT 32/20 A2972 RMK A01 T03210196  RH  048%=      5-min Rain = 0
KAHS 272226Z 17010G15KT 32/20 A2972 RMK A01 T03230200  RH  048%=      5-min Rain = 0
KAHS 272227Z 17015KT 32/19 A2972 RMK A01 T03220192  RH  046%=      5-min Rain = 0
KAHS 272228Z 17011KT 32/19 A2972 RMK A01 T03200191  RH  047%=      5-min Rain = 0
KAHS 272229Z 17010KT 32/19 A2972 RMK A01 T03190193  RH  047%=      5-min Rain = 0
KAHS 272230Z 16011G16KT 32/19 A2972 RMK A01 T03190192  RH  047%=      5-min Rain = 0
KAHS 272231Z 17012KT 32/20 A2972 RMK A01 T03200195  RH  048%=      5-min Rain = 0
KAHS 272232Z 16016KT 32/19 A2972 RMK A01 T03200193  RH  047%=      5-min Rain = 0
KAHS 272233Z 16014G19KT 32/19 A2972 RMK A01 T03190189  RH  046%=      5-min Rain = 0
KAHS 272234Z 17011KT 32/19 A2972 RMK A01 T03180190  RH  047%=      5-min Rain = 0
KAHS 272235Z 17014G19KT 32/20 A2972 RMK A01 T03190196  RH  048%=      5-min Rain = 0
KAHS 272236Z 16016KT 32/20 A2972 RMK A01 T03180196  RH  049%=      5-min Rain = 0
KAHS 272237Z 16016KT 32/20 A2972 RMK A01 T03160196  RH  049%=      5-min Rain = 0
KAHS 272238Z 16014G19KT 32/20 A2972 RMK A01 T03160197  RH  049%=      5-min Rain = 0
KAHS 272239Z 16015KT 32/19 A2972 RMK A01 T03150193  RH  048%=      5-min Rain = 0
KAHS 272240Z 15011KT 32/19 A2972 RMK A01 T03150194  RH  049%=      5-min Rain = 0
KAHS 272241Z 15010KT 31/20 A2972 RMK A01 T03130195  RH  050%=      5-min Rain = 0
KAHS 272242Z 16013KT 31/20 A2972 RMK A01 T03110195  RH  050%=      5-min Rain = 0
KAHS 272243Z 16013KT 31/19 A2972 RMK A01 T03100194  RH  050%=      5-min Rain = 0
KAHS 272244Z 15012KT 31/20 A2972 RMK A01 T03110196  RH  051%=      5-min Rain = 0
KAHS 272245Z 15013KT 31/20 A2972 RMK A01 T03130198  RH  051%=      5-min Rain = 0
KAHS 272246Z 17011KT 32/20 A2972 RMK A01 T03150200  RH  050%=      5-min Rain = 0
KAHS 272247Z 17012KT 32/20 A2972 RMK A01 T03170199  RH  050%=      5-min Rain = 0
KAHS 272248Z 18010KT 32/20 A2971 RMK A01 T03170199  RH  050%=      5-min Rain = 0
KAHS 272249Z 17012KT 32/20 A2971 RMK A01 T03180200  RH  050%=      5-min Rain = 0
KAHS 272250Z 18013KT 32/20 A2971 RMK A01 T03180199  RH  049%=      5-min Rain = 0
KAHS 272251Z 17012KT 32/20 A2971 RMK A01 T03180199  RH  050%=      5-min Rain = 0
KAHS 272252Z 18012G17KT 32/20 A2971 RMK A01 T03170202  RH  050%=      5-min Rain = 0
KAHS 272253Z 18010KT 32/20 A2971 RMK A01 T03150201  RH  051%=      5-min Rain = 0
KAHS 272254Z 18011KT 31/20 A2971 RMK A01 T03140201  RH  051%=      5-min Rain = 0
KAHS 272255Z 18011KT 31/20 A2971 RMK A01 T03140202  RH  051%=      5-min Rain = 0
KAHS 272256Z 18009KT 32/20 A2971 RMK A01 T03150204  RH  052%=      5-min Rain = 0
KAHS 272257Z 17011G17KT 32/21 A2971 RMK A01 T03170206  RH  052%=      5-min Rain = 0
KAHS 272258Z 17017KT 32/20 A2971 RMK A01 T03170202  RH  051%=      5-min Rain = 0
KAHS 272259Z 17014KT 32/20 A2971 RMK A01 T03160201  RH  051%=      5-min Rain = 0
KAHS 272300Z 17015KT 32/20 A2971 RMK A01 T03150200  RH  051%=      5-min Rain = 0
KAHS 272301Z 16014G19KT 31/20 A2971 RMK A01 T03140201  RH  051%=      5-min Rain = 0
KAHS 272302Z 16016KT 31/20 A2971 RMK A01 T03130200  RH  051%=      5-min Rain = 0
KAHS 272303Z 15012KT 31/20 A2971 RMK A01 T03130201  RH  051%=      5-min Rain = 0
KAHS 272304Z 15011KT 31/20 A2971 RMK A01 T03130202  RH  052%=      5-min Rain = 0
KAHS 272305Z 14011G17KT 31/20 A2971 RMK A01 T03130202  RH  052%=      5-min Rain = 0
KAHS 272306Z 15011G17KT 31/20 A2971 RMK A01 T03130202  RH  052%=      5-min Rain = 0
KAHS 272307Z 15012KT 31/20 A2971 RMK A01 T03130203  RH  052%=      5-min Rain = 0
KAHS 272308Z 16015KT 31/20 A2971 RMK A01 T03130202  RH  052%=      5-min Rain = 0
KAHS 272309Z 16013G18KT 31/20 A2971 RMK A01 T03140202  RH  051%=      5-min Rain = 0
KAHS 272310Z 16013KT 31/20 A2971 RMK A01 T03140200  RH  051%=      5-min Rain = 0
KAHS 272311Z 17013KT 31/20 A297 RMK A01 T03140201  RH  051%=      5-min Rain = 0
KAHS 272312Z 17012G17KT 31/20 A2971 RMK A01 T03130201  RH  051%=      5-min Rain = 0
KAHS 272313Z 16010KT 31/20 A2971 RMK A01 T03140204  RH  052%=      5-min Rain = 0
KAHS 272314Z 16009KT 32/21 A297 RMK A01 T03150205  RH  052%=      5-min Rain = 0
KAHS 272315Z 15013KT 32/20 A297 RMK A01 T03150204  RH  052%=      5-min Rain = 0
KAHS 272316Z 15010KT 31/20 A297 RMK A01 T03130202  RH  052%=      5-min Rain = 0
KAHS 272317Z 15009KT 31/20 A297 RMK A01 T03130204  RH  052%=      5-min Rain = 0
KAHS 272318Z 16009KT 31/21 A297 RMK A01 T03140205  RH  053%=      5-min Rain = 0
KAHS 272319Z 16010G15KT 31/21 A297 RMK A01 T03140206  RH  053%=      5-min Rain = 0
KAHS 272320Z 16009KT 31/21 A297 RMK A01 T03140208  RH  053%=      5-min Rain = 0
KAHS 272321Z 18008KT 32/21 A297 RMK A01 T03150208  RH  053%=      5-min Rain = 0
KAHS 272322Z 19014KT 32/20 A297 RMK A01 T03150201  RH  051%=      5-min Rain = 0
KAHS 272323Z 17013KT 31/20 A297 RMK A01 T03130196  RH  050%=      5-min Rain = 0
KAHS 272324Z 18014KT 31/20 A297 RMK A01 T03120196  RH  050%=      5-min Rain = 0
KAHS 272325Z 18012KT 31/20 A297 RMK A01 T03120198  RH  051%=      5-min Rain = 0
KAHS 272326Z 18013KT 31/20 A297 RMK A01 T03120198  RH  051%=      5-min Rain = 0
KAHS 272327Z 17014KT 31/20 A297 RMK A01 T03120200  RH  051%=      5-min Rain = 0
KAHS 272328Z 18013KT 31/20 A297 RMK A01 T03120197  RH  051%=      5-min Rain = 0
KAHS 272329Z 17011G17KT 31/20 A297 RMK A01 T03120201  RH  052%=      5-min Rain = 0
KAHS 272330Z 16014G19KT 31/20 A297 RMK A01 T03120203  RH  052%=      5-min Rain = 0
KAHS 272331Z 16011KT 31/20 A297 RMK A01 T03120204  RH  053%=      5-min Rain = 0
KAHS 272332Z 15011G16KT 31/21 A297 RMK A01 T03130206  RH  053%=      5-min Rain = 0
KAHS 272333Z 16012KT 31/20 A297 RMK A01 T03120204  RH  053%=      5-min Rain = 0
KAHS 272334Z 15014KT 31/20 A297 RMK A01 T03110203  RH  053%=      5-min Rain = 0
KAHS 272335Z 15014G20KT 31/20 A297 RMK A01 T03110202  RH  052%=      5-min Rain = 0
KAHS 272336Z 16017KT 31/20 A297 RMK A01 T03110201  RH  052%=      5-min Rain = 0
KAHS 272337Z 15018KT 31/20 A297 RMK A01 T03100199  RH  052%=      5-min Rain = 0
KAHS 272338Z 17017KT 31/20 A297 RMK A01 T03100199  RH  052%=      5-min Rain = 0
KAHS 272339Z 17016KT 31/20 A297 RMK A01 T03090200  RH  052%=      5-min Rain = 0
KAHS 272340Z 17016KT 31/20 A297 RMK A01 T03100201  RH  052%=      5-min Rain = 0
KAHS 272341Z 17013KT 31/20 A297 RMK A01 T03090200  RH  052%=      5-min Rain = 0
KAHS 272342Z 17015KT 31/20 A297 RMK A01 T03080198  RH  052%=      5-min Rain = 0
KAHS 272343Z 16013KT 31/20 A297 RMK A01 T03080199  RH  052%=      5-min Rain = 0
KAHS 272344Z 17013KT 31/20 A297 RMK A01 T03080200  RH  052%=      5-min Rain = 0
KAHS 272345Z 17012KT 31/20 A297 RMK A01 T03090200  RH  052%=      5-min Rain = 0
KAHS 272346Z 16010KT 31/20 A297 RMK A01 T03090201  RH  053%=      5-min Rain = 0
KAHS 272347Z 15014G19KT 31/20 A297 RMK A01 T03090201  RH  052%=      5-min Rain = 0
KAHS 272348Z 16015KT 31/20 A297 RMK A01 T03080200  RH  052%=      5-min Rain = 0
KAHS 272349Z 16013KT 31/20 A2969 RMK A01 T03080199  RH  052%=      5-min Rain = 0
KAHS 272350Z 17011KT 31/20 A297 RMK A01 T03080202  RH  053%=      5-min Rain = 0
KAHS 272351Z 16011KT 31/20 A297 RMK A01 T03090201  RH  053%=      5-min Rain = 0
KAHS 272352Z 15014KT 31/20 A2969 RMK A01 T03090202  RH  053%=      5-min Rain = 0
KAHS 272353Z 15013KT 31/20 A2969 RMK A01 T03080201  RH  053%=      5-min Rain = 0
KAHS 272354Z 15015KT 31/20 A297 RMK A01 T03080201  RH  053%=      5-min Rain = 0
KAHS 272355Z 15011KT 31/20 A2969 RMK A01 T03080202  RH  053%=      5-min Rain = 0
KAHS 272356Z 16012KT 31/20 A297 RMK A01 T03070202  RH  054%=      5-min Rain = 0
KAHS 272357Z 15013KT 31/20 A2969 RMK A01 T03060202  RH  054%=      5-min Rain = 0
KAHS 272358Z 16012KT 31/20 A2969 RMK A01 T03060204  RH  054%=      5-min Rain = 0
KAHS 272359Z 17011KT 31/20 A2969 RMK A01 T03060204  RH  055%=      5-min Rain = 0
KAHS 280000Z 17012KT 31/20 A2969 RMK A01 T03060204  RH  054%=      5-min Rain = 0
KAHS 280001Z 16011KT 31/20 A2969 RMK A01 T03060204  RH  054%=      5-min Rain = 0
KAHS 280002Z 16010KT 31/21 A2969 RMK A01 T03070205  RH  054%=      5-min Rain = 0
KAHS 280003Z 16009KT 31/21 A2969 RMK A01 T03060206  RH  055%=      5-min Rain = 0
KAHS 280004Z 16009KT 31/21 A2969 RMK A01 T03060206  RH  055%=      5-min Rain = 0
KAHS 280005Z 16012KT 31/21 A2969 RMK A01 T03060205  RH  055%=      5-min Rain = 0
KAHS 280006Z 17012KT 31/20 A2969 RMK A01 T03060204  RH  055%=      5-min Rain = 0
KAHS 280007Z 17012KT 31/20 A2969 RMK A01 T03060204  RH  054%=      5-min Rain = 0
KAHS 280008Z 18012KT 31/20 A2969 RMK A01 T03060203  RH  054%=      5-min Rain = 0
KAHS 280009Z 18013G18KT 31/20 A2969 RMK A01 T03060200  RH  053%=      5-min Rain = 0
KAHS 280010Z 18011KT 31/20 A2969 RMK A01 T03060201  RH  054%=      5-min Rain = 0
KAHS 280011Z 17014KT 31/20 A2969 RMK A01 T03060201  RH  054%=      5-min Rain = 0
KAHS 280012Z 18015KT 31/20 A2969 RMK A01 T03050200  RH  053%=      5-min Rain = 0
KAHS 280013Z 17015KT 30/20 A2969 RMK A01 T03040200  RH  054%=      5-min Rain = 0
KAHS 280014Z 16013G21KT 30/20 A2969 RMK A01 T03040200  RH  054%=      5-min Rain = 0
KAHS 280015Z 17014G19KT 30/20 A2969 RMK A01 T03040201  RH  054%=      5-min Rain = 0
KAHS 280016Z 17015KT 30/20 A2969 RMK A01 T03040201  RH  054%=      5-min Rain = 0
KAHS 280017Z 18014G19KT 30/20 A2969 RMK A01 T03040201  RH  054%=      5-min Rain = 0
KAHS 280018Z 18014KT 30/20 A2969 RMK A01 T03040200  RH  054%=      5-min Rain = 0
KAHS 280019Z 17014G19KT 30/20 A2969 RMK A01 T03040200  RH  054%=      5-min Rain = 0
KAHS 280020Z 18015KT 30/20 A2969 RMK A01 T03040200  RH  054%=      5-min Rain = 0
KAHS 280021Z 16012KT 30/20 A2969 RMK A01 T03030201  RH  054%=      5-min Rain = 0
KAHS 280022Z 16010KT 30/20 A2969 RMK A01 T03040203  RH  055%=      5-min Rain = 0
KAHS 280023Z 16011KT 30/20 A2969 RMK A01 T03040203  RH  055%=      5-min Rain = 0
KAHS 280024Z 16012KT 30/20 A2969 RMK A01 T03040201  RH  054%=      5-min Rain = 0
KAHS 280025Z 16011KT 30/20 A2969 RMK A01 T03040201  RH  054%=      5-min Rain = 0
KAHS 280026Z 17014KT 30/20 A2969 RMK A01 T03030199  RH  054%=      5-min Rain = 0
KAHS 280027Z 17013KT 30/20 A2969 RMK A01 T03030199  RH  054%=      5-min Rain = 0
KAHS 280028Z 17016KT 30/20 A2969 RMK A01 T03030198  RH  054%=      5-min Rain = 0
KAHS 280029Z 17014KT 30/20 A2969 RMK A01 T03030198  RH  054%=      5-min Rain = 0
KAHS 280030Z 17014KT 30/20 A2969 RMK A01 T03020199  RH  054%=      5-min Rain = 0
KAHS 280031Z 16013G19KT 30/20 A2969 RMK A01 T03020199  RH  054%=      5-min Rain = 0
KAHS 280032Z 16012KT 30/20 A2969 RMK A01 T03020199  RH  054%=      5-min Rain = 0
KAHS 280033Z 16013KT 30/20 A2969 RMK A01 T03020199  RH  054%=      5-min Rain = 0
KAHS 280034Z 16012KT 30/20 A2969 RMK A01 T03020199  RH  054%=      5-min Rain = 0
KAHS 280035Z 15010KT 30/20 A2969 RMK A01 T03020200  RH  054%=      5-min Rain = 0
KAHS 280036Z 17013KT 30/20 A2969 RMK A01 T03020201  RH  055%=      5-min Rain = 0
KAHS 280037Z 17011KT 30/20 A2969 RMK A01 T03010200  RH  055%=      5-min Rain = 0
KAHS 280038Z 17010G15KT 30/20 A2969 RMK A01 T03010201  RH  055%=      5-min Rain = 0
KAHS 280039Z 16010KT 30/20 A2969 RMK A01 T03010202  RH  055%=      5-min Rain = 0
KAHS 280040Z 16009KT 30/20 A2969 RMK A01 T03000203  RH  056%=      5-min Rain = 0
KAHS 280041Z 17010KT 30/20 A2969 RMK A01 T03000203  RH  056%=      5-min Rain = 0
KAHS 280042Z 18012KT 30/20 A2969 RMK A01 T02990203  RH  056%=      5-min Rain = 0
KAHS 280043Z 17010G17KT 30/20 A2969 RMK A01 T02990203  RH  056%=      5-min Rain = 0
KAHS 280044Z 17015KT 30/20 A2968 RMK A01 T02990201  RH  056%=      5-min Rain = 0
KAHS 280045Z 17012G17KT 30/20 A2969 RMK A01 T02990200  RH  055%=      5-min Rain = 0
KAHS 280046Z 17012KT 30/20 A2969 RMK A01 T02990200  RH  056%=      5-min Rain = 0
KAHS 280047Z 17013KT 30/20 A2969 RMK A01 T02990201  RH  056%=      5-min Rain = 0
KAHS 280048Z 17014G20KT 30/20 A2968 RMK A01 T02980199  RH  055%=      5-min Rain = 0
KAHS 280049Z 17014KT 30/20 A2968 RMK A01 T02980199  RH  055%=      5-min Rain = 0
KAHS 280050Z 18014KT 30/20 A2968 RMK A01 T02980199  RH  055%=      5-min Rain = 0
KAHS 280051Z 17013KT 30/20 A2968 RMK A01 T02980199  RH  055%=      5-min Rain = 0
KAHS 280052Z 17012G17KT 30/20 A2968 RMK A01 T02980199  RH  055%=      5-min Rain = 0
KAHS 280053Z 18014KT 30/20 A2968 RMK A01 T02970198  RH  055%=      5-min Rain = 0
KAHS 280054Z 17014G19KT 30/20 A2968 RMK A01 T02970198  RH  055%=      5-min Rain = 0
KAHS 280055Z 16015G21KT 30/20 A2968 RMK A01 T02970197  RH  055%=      5-min Rain = 0
KAHS 280056Z 16014KT 30/20 A2968 RMK A01 T02980197  RH  055%=      5-min Rain = 0
KAHS 280057Z 16013G18KT 30/20 A2968 RMK A01 T02970198  RH  055%=      5-min Rain = 0
KAHS 280058Z 16013KT 30/20 A2969 RMK A01 T02970199  RH  056%=      5-min Rain = 0
KAHS 280059Z 17012KT 30/20 A2969 RMK A01 T02970199  RH  056%=      5-min Rain = 0
KAHS 280100Z 16013KT 30/20 A2969 RMK A01 T02960199  RH  056%=      5-min Rain = 0
KAHS 280101Z 16011G16KT 30/20 A2969 RMK A01 T02960199  RH  056%=      5-min Rain = 0
KAHS 280102Z 17011KT 30/20 A2969 RMK A01 T02960199  RH  056%=      5-min Rain = 0
KAHS 280103Z 17009KT 30/20 A2969 RMK A01 T02950200  RH  056%=      5-min Rain = 0
KAHS 280104Z 16010KT 30/20 A2969 RMK A01 T02950201  RH  057%=      5-min Rain = 0
KAHS 280105Z 17011KT 29/20 A2969 RMK A01 T02940200  RH  057%=      5-min Rain = 0
KAHS 280106Z 16010KT 29/20 A2969 RMK A01 T02940201  RH  057%=      5-min Rain = 0
KAHS 280107Z 16011KT 29/20 A2969 RMK A01 T02940200  RH  057%=      5-min Rain = 0
KAHS 280108Z 16011KT 29/20 A2969 RMK A01 T02940200  RH  057%=      5-min Rain = 0
KAHS 280109Z 16010KT 29/20 A2969 RMK A01 T02940201  RH  057%=      5-min Rain = 0
KAHS 280110Z 16011KT 29/20 A2969 RMK A01 T02930201  RH  058%=      5-min Rain = 0
KAHS 280111Z 16012KT 29/20 A2969 RMK A01 T02930200  RH  057%=      5-min Rain = 0
KAHS 280112Z 17009KT 29/20 A2969 RMK A01 T02930201  RH  058%=      5-min Rain = 0
KAHS 280113Z 16009KT 29/20 A2969 RMK A01 T02920202  RH  058%=      5-min Rain = 0
KAHS 280114Z 17009KT 29/20 A2969 RMK A01 T02920202  RH  058%=      5-min Rain = 0
KAHS 280115Z 17010KT 29/20 A2969 RMK A01 T02910202  RH  059%=      5-min Rain = 0
KAHS 280116Z 17009KT 29/20 A2969 RMK A01 T02910202  RH  059%=      5-min Rain = 0
KAHS 280117Z 16011KT 29/20 A2969 RMK A01 T02900202  RH  059%=      5-min Rain = 0
KAHS 280118Z 16010G15KT 29/20 A2969 RMK A01 T02900201  RH  059%=      5-min Rain = 0
KAHS 280119Z 16013KT 29/20 A2969 RMK A01 T02900201  RH  059%=      5-min Rain = 0
KAHS 280120Z 16009KT 29/20 A2969 RMK A01 T02900200  RH  058%=      5-min Rain = 0
KAHS 280121Z 16010KT 29/20 A2969 RMK A01 T02900201  RH  059%=      5-min Rain = 0
KAHS 280122Z 17010KT 29/20 A2969 RMK A01 T02890200  RH  059%=      5-min Rain = 0
KAHS 280123Z 16008KT 29/20 A2969 RMK A01 T02890201  RH  059%=      5-min Rain = 0
KAHS 280124Z 16009KT 29/20 A2969 RMK A01 T02880201  RH  059%=      5-min Rain = 0
KAHS 280125Z 16009KT 29/20 A2969 RMK A01 T02880201  RH  059%=      5-min Rain = 0
KAHS 280126Z 16009KT 29/20 A2969 RMK A01 T02880201  RH  059%=      5-min Rain = 0
KAHS 280127Z 16010KT 29/20 A2969 RMK A01 T02880201  RH  059%=      5-min Rain = 0
KAHS 280128Z 16011KT 29/20 A2969 RMK A01 T02870201  RH  060%=      5-min Rain = 0
KAHS 280129Z 16009KT 29/20 A2969 RMK A01 T02870201  RH  060%=      5-min Rain = 0
KAHS 280130Z 16011KT 29/20 A2969 RMK A01 T02870201  RH  060%=      5-min Rain = 0
KAHS 280131Z 15010KT 29/20 A2969 RMK A01 T02860201  RH  060%=      5-min Rain = 0
KAHS 280132Z 16012G17KT 29/20 A2969 RMK A01 T02860202  RH  060%=      5-min Rain = 0
KAHS 280133Z 16012KT 29/20 A2969 RMK A01 T02850201  RH  060%=      5-min Rain = 0
KAHS 280134Z 17009KT 29/20 A2969 RMK A01 T02850202  RH  061%=      5-min Rain = 0
KAHS 280135Z 16011KT 28/20 A2969 RMK A01 T02840202  RH  061%=      5-min Rain = 0
KAHS 280136Z 17010KT 28/20 A2969 RMK A01 T02840202  RH  061%=      5-min Rain = 0
KAHS 280137Z 16010KT 28/20 A2969 RMK A01 T02840202  RH  061%=      5-min Rain = 0
KAHS 280138Z 17010G15KT 28/20 A2969 RMK A01 T02840202  RH  061%=      5-min Rain = 0
KAHS 280139Z 17011KT 28/20 A2969 RMK A01 T02840202  RH  061%=      5-min Rain = 0
KAHS 280140Z 17010KT 28/20 A2969 RMK A01 T02840202  RH  061%=      5-min Rain = 0
KAHS 280141Z 16009KT 28/20 A2969 RMK A01 T02830202  RH  061%=      5-min Rain = 0
KAHS 280142Z 16009KT 28/20 A2969 RMK A01 T02830202  RH  061%=      5-min Rain = 0
KAHS 280143Z 17010G15KT 28/20 A2969 RMK A01 T02830202  RH  061%=      5-min Rain = 0
KAHS 280144Z 16010KT 28/20 A2969 RMK A01 T02820202  RH  062%=      5-min Rain = 0
KAHS 280145Z 17009KT 28/20 A2969 RMK A01 T02820202  RH  062%=      5-min Rain = 0
KAHS 280146Z 16010KT 28/20 A2969 RMK A01 T02820202  RH  062%=      5-min Rain = 0
KAHS 280147Z 17011KT 28/20 A2969 RMK A01 T02820201  RH  062%=      5-min Rain = 0
KAHS 280148Z 16010KT 28/20 A2969 RMK A01 T02820201  RH  061%=      5-min Rain = 0
KAHS 280149Z 17010KT 28/20 A2969 RMK A01 T02820202  RH  062%=      5-min Rain = 0
KAHS 280150Z 16011G16KT 28/20 A2969 RMK A01 T02810202  RH  062%=      5-min Rain = 0
KAHS 280151Z 17009KT 28/20 A2969 RMK A01 T02810201  RH  062%=      5-min Rain = 0
KAHS 280152Z 17008KT 28/20 A2969 RMK A01 T02800202  RH  062%=      5-min Rain = 0
KAHS 280153Z 17009KT 28/20 A2969 RMK A01 T02790202  RH  063%=      5-min Rain = 0
KAHS 280154Z 16011KT 28/20 A2969 RMK A01 T02790202  RH  063%=      5-min Rain = 0
KAHS 280155Z 16011KT 28/20 A2969 RMK A01 T02790201  RH  062%=      5-min Rain = 0
KAHS 280156Z 16010KT 28/20 A2969 RMK A01 T02800201  RH  062%=      5-min Rain = 0
KAHS 280157Z 16010KT 28/20 A2969 RMK A01 T02790201  RH  062%=      5-min Rain = 0
KAHS 280158Z 16011KT 28/20 A2969 RMK A01 T02790201  RH  062%=      5-min Rain = 0
KAHS 280159Z 16011KT 28/20 A2969 RMK A01 T02790200  RH  062%=      5-min Rain = 0
KAHS 280200Z 16010KT 28/20 A2969 RMK A01 T02800200  RH  062%=      5-min Rain = 0
KAHS 280201Z 16009KT 28/20 A2969 RMK A01 T02790201  RH  062%=      5-min Rain = 0
KAHS 280202Z 16009KT 28/20 A2969 RMK A01 T02780200  RH  062%=      5-min Rain = 0
KAHS 280203Z 16008KT 28/20 A2969 RMK A01 T02780200  RH  063%=      5-min Rain = 0
KAHS 280204Z 17009KT 28/20 A2969 RMK A01 T02770200  RH  063%=      5-min Rain = 0
KAHS 280205Z 16010KT 28/20 A2969 RMK A01 T02770200  RH  063%=      5-min Rain = 0
KAHS 280206Z 16009KT 28/20 A2969 RMK A01 T02770200  RH  063%=      5-min Rain = 0
KAHS 280207Z 16007KT 28/20 A2969 RMK A01 T02760200  RH  063%=      5-min Rain = 0
KAHS 280208Z 16009KT 28/20 A2969 RMK A01 T02760200  RH  063%=      5-min Rain = 0
KAHS 280209Z 17009KT 28/20 A2969 RMK A01 T02760201  RH  064%=      5-min Rain = 0
KAHS 280210Z 17008KT 28/20 A297 RMK A01 T02750200  RH  064%=      5-min Rain = 0
KAHS 280211Z 17008KT 28/20 A297 RMK A01 T02750201  RH  064%=      5-min Rain = 0
KAHS 280212Z 16007KT 27/20 A297 RMK A01 T02740201  RH  064%=      5-min Rain = 0
KAHS 280213Z 17007KT 27/20 A297 RMK A01 T02740201  RH  064%=      5-min Rain = 0
KAHS 280214Z 17006KT 27/20 A297 RMK A01 T02730201  RH  065%=      5-min Rain = 0
KAHS 280215Z 17007KT 27/20 A297 RMK A01 T02720201  RH  065%=      5-min Rain = 0
KAHS 280216Z 17009KT 27/20 A297 RMK A01 T02720201  RH  065%=      5-min Rain = 0
KAHS 280217Z 17007KT 27/20 A297 RMK A01 T02730201  RH  065%=      5-min Rain = 0
KAHS 280218Z 16009KT 27/20 A297 RMK A01 T02720201  RH  065%=      5-min Rain = 0
KAHS 280219Z 17007KT 27/20 A297 RMK A01 T02730201  RH  065%=      5-min Rain = 0
KAHS 280220Z 17008KT 27/20 A297 RMK A01 T02720201  RH  065%=      5-min Rain = 0
KAHS 280221Z 17007KT 27/20 A297 RMK A01 T02720201  RH  065%=      5-min Rain = 0
KAHS 280222Z 17009KT 27/20 A297 RMK A01 T02720200  RH  065%=      5-min Rain = 0
KAHS 280223Z 17008KT 27/20 A297 RMK A01 T02720200  RH  065%=      5-min Rain = 0
KAHS 280224Z 17008KT 27/20 A297 RMK A01 T02720200  RH  065%=      5-min Rain = 0
KAHS 280225Z 17007KT 27/20 A297 RMK A01 T02720201  RH  065%=      5-min Rain = 0
KAHS 280226Z 16006KT 27/20 A297 RMK A01 T02720201  RH  065%=      5-min Rain = 0
KAHS 280227Z 16007KT 27/20 A297 RMK A01 T02710201  RH  065%=      5-min Rain = 0
KAHS 280228Z 17007KT 27/20 A297 RMK A01 T02710201  RH  066%=      5-min Rain = 0
KAHS 280229Z 17006KT 27/20 A297 RMK A01 T02700201  RH  066%=      5-min Rain = 0
KAHS 280230Z 17009KT 27/20 A297 RMK A01 T02700201  RH  066%=      5-min Rain = 0
KAHS 280231Z 17007KT 27/20 A297 RMK A01 T02700201  RH  066%=      5-min Rain = 0
KAHS 280232Z 17008KT 27/20 A297 RMK A01 T02700201  RH  066%=      5-min Rain = 0
KAHS 280233Z 17008KT 27/20 A297 RMK A01 T02690201  RH  066%=      5-min Rain = 0
KAHS 280234Z 17007KT 27/20 A297 RMK A01 T02700201  RH  066%=      5-min Rain = 0
KAHS 280235Z 17007KT 27/20 A297 RMK A01 T02690201  RH  066%=      5-min Rain = 0
KAHS 280236Z 18008KT 27/20 A297 RMK A01 T02690201  RH  066%=      5-min Rain = 0
KAHS 280237Z 17007KT 27/20 A297 RMK A01 T02690200  RH  066%=      5-min Rain = 0
KAHS 280238Z 17011KT 27/20 A297 RMK A01 T02700200  RH  066%=      5-min Rain = 0
KAHS 280239Z 17008KT 27/20 A297 RMK A01 T02710200  RH  065%=      5-min Rain = 0
KAHS 280240Z 17009KT 27/20 A297 RMK A01 T02710200  RH  065%=      5-min Rain = 0
KAHS 280241Z 18008KT 27/20 A297 RMK A01 T02710200  RH  065%=      5-min Rain = 0
KAHS 280242Z 17009KT 27/20 A297 RMK A01 T02700200  RH  065%=      5-min Rain = 0
KAHS 280243Z 17007KT 27/20 A297 RMK A01 T02710200  RH  065%=      5-min Rain = 0
KAHS 280244Z 17007KT 27/20 A297 RMK A01 T02700200  RH  065%=      5-min Rain = 0
KAHS 280245Z 18006KT 27/20 A297 RMK A01 T02700200  RH  066%=      5-min Rain = 0
KAHS 280246Z 17008KT 27/20 A297 RMK A01 T02690200  RH  066%=      5-min Rain = 0
KAHS 280247Z 17008KT 27/20 A297 RMK A01 T02690200  RH  066%=      5-min Rain = 0
KAHS 280248Z 17008KT 27/20 A297 RMK A01 T02690200  RH  066%=      5-min Rain = 0
KAHS 280249Z 17007KT 27/20 A297 RMK A01 T02690200  RH  066%=      5-min Rain = 0
KAHS 280250Z 17007KT 27/20 A297 RMK A01 T02680200  RH  066%=      5-min Rain = 0
KAHS 280251Z 17006KT 27/20 A297 RMK A01 T02670200  RH  067%=      5-min Rain = 0
KAHS 280252Z 17008KT 27/20 A297 RMK A01 T02670200  RH  067%=      5-min Rain = 0
KAHS 280253Z 17006KT 27/20 A297 RMK A01 T02670200  RH  067%=      5-min Rain = 0
KAHS 280254Z 17006KT 27/20 A297 RMK A01 T02660200  RH  067%=      5-min Rain = 0
KAHS 280255Z 17006KT 27/20 A297 RMK A01 T02660200  RH  067%=      5-min Rain = 0
KAHS 280256Z 17006KT 27/20 A297 RMK A01 T02650200  RH  067%=      5-min Rain = 0
KAHS 280257Z 17007KT 26/20 A297 RMK A01 T02640200  RH  068%=      5-min Rain = 0
KAHS 280258Z 16007KT 26/20 A297 RMK A01 T02640200  RH  068%=      5-min Rain = 0
KAHS 280259Z 16006KT 26/20 A297 RMK A01 T02640200  RH  068%=      5-min Rain = 0
KAHS 280300Z 16005KT 26/20 A297 RMK A01 T02640200  RH  068%=      5-min Rain = 0
KAHS 280301Z 16006KT 26/20 A297 RMK A01 T02640200  RH  068%=      5-min Rain = 0
KAHS 280302Z 17005KT 26/20 A297 RMK A01 T02630200  RH  068%=      5-min Rain = 0
KAHS 280303Z 16006KT 26/20 A297 RMK A01 T02630200  RH  068%=      5-min Rain = 0
KAHS 280304Z 16005KT 26/20 A297 RMK A01 T02620200  RH  069%=      5-min Rain = 0
KAHS 280305Z 16004KT 26/20 A297 RMK A01 T02620200  RH  069%=      5-min Rain = 0
KAHS 280306Z 16005KT 26/20 A297 RMK A01 T02610200  RH  069%=      5-min Rain = 0
KAHS 280307Z 16004KT 26/20 A297 RMK A01 T02610200  RH  069%=      5-min Rain = 0
KAHS 280308Z 16005KT 26/20 A297 RMK A01 T02600200  RH  069%=      5-min Rain = 0
KAHS 280309Z 16005KT 26/20 A2971 RMK A01 T02600200  RH  070%=      5-min Rain = 0
KAHS 280310Z 16005KT 26/20 A2971 RMK A01 T02590200  RH  070%=      5-min Rain = 0
KAHS 280311Z 16005KT 26/20 A297 RMK A01 T02580200  RH  070%=      5-min Rain = 0
KAHS 280312Z 16006KT 26/20 A2971 RMK A01 T02580201  RH  070%=      5-min Rain = 0
KAHS 280313Z 16005KT 26/20 A2971 RMK A01 T02580201  RH  070%=      5-min Rain = 0
KAHS 280314Z 16007KT 26/20 A297 RMK A01 T02580200  RH  070%=      5-min Rain = 0
KAHS 280315Z 16005KT 26/20 A297 RMK A01 T02590201  RH  070%=      5-min Rain = 0
KAHS 280316Z 16006KT 26/20 A297 RMK A01 T02590200  RH  070%=      5-min Rain = 0
KAHS 280317Z 17006KT 26/20 A297 RMK A01 T02600201  RH  070%=      5-min Rain = 0
KAHS 280318Z 16007KT 26/20 A297 RMK A01 T02600201  RH  070%=      5-min Rain = 0
KAHS 280319Z 17008KT 26/20 A297 RMK A01 T02600201  RH  070%=      5-min Rain = 0
KAHS 280320Z 17009KT 26/20 A297 RMK A01 T02600201  RH  070%=      5-min Rain = 0
KAHS 280321Z 17008KT 26/20 A297 RMK A01 T02610201  RH  069%=      5-min Rain = 0
KAHS 280322Z 18007KT 26/20 A297 RMK A01 T02610201  RH  069%=      5-min Rain = 0
KAHS 280323Z 17007KT 26/20 A297 RMK A01 T02610201  RH  069%=      5-min Rain = 0
KAHS 280324Z 17007KT 26/20 A297 RMK A01 T02600200  RH  069%=      5-min Rain = 0
KAHS 280325Z 18006KT 26/20 A2971 RMK A01 T02600200  RH  070%=      5-min Rain = 0
KAHS 280326Z 18007KT 26/20 A2971 RMK A01 T02600201  RH  070%=      5-min Rain = 0
KAHS 280327Z 17007KT 26/20 A2971 RMK A01 T02600200  RH  069%=      5-min Rain = 0
KAHS 280328Z 17007KT 26/20 A2971 RMK A01 T02600200  RH  069%=      5-min Rain = 0
KAHS 280329Z 17005KT 26/20 A2971 RMK A01 T02600200  RH  070%=      5-min Rain = 0
KAHS 280330Z 18008KT 26/20 A297 RMK A01 T02600200  RH  069%=      5-min Rain = 0
KAHS 280331Z 17007KT 26/20 A297 RMK A01 T02610200  RH  069%=      5-min Rain = 0
KAHS 280332Z 17008KT 26/20 A297 RMK A01 T02610200  RH  069%=      5-min Rain = 0
KAHS 280333Z 17009G15KT 26/20 A2971 RMK A01 T02620200  RH  069%=      5-min Rain = 0
KAHS 280334Z 17009KT 26/20 A2971 RMK A01 T02620199  RH  068%=      5-min Rain = 0
KAHS 280335Z 17006KT 26/20 A2971 RMK A01 T02620200  RH  068%=      5-min Rain = 0
KAHS 280336Z 17008KT 26/20 A2971 RMK A01 T02610199  RH  069%=      5-min Rain = 0
KAHS 280337Z 17009KT 26/20 A2971 RMK A01 T02620200  RH  069%=      5-min Rain = 0
KAHS 280338Z 17008KT 26/20 A2971 RMK A01 T02620199  RH  068%=      5-min Rain = 0
KAHS 280339Z 17006KT 26/20 A2971 RMK A01 T02620199  RH  068%=      5-min Rain = 0
KAHS 280340Z 17007KT 26/20 A2971 RMK A01 T02610199  RH  069%=      5-min Rain = 0
KAHS 280341Z 17009KT 26/20 A2971 RMK A01 T02610199  RH  069%=      5-min Rain = 0
KAHS 280342Z 16008KT 26/20 A2971 RMK A01 T02620199  RH  069%=      5-min Rain = 0
KAHS 280343Z 16008KT 26/20 A2971 RMK A01 T02610199  RH  069%=      5-min Rain = 0
KAHS 280344Z 17009KT 26/20 A2971 RMK A01 T02610199  RH  069%=      5-min Rain = 0
KAHS 280345Z 17008KT 26/20 A2971 RMK A01 T02610199  RH  069%=      5-min Rain = 0
KAHS 280346Z 17007KT 26/20 A2971 RMK A01 T02610199  RH  069%=      5-min Rain = 0
KAHS 280347Z 17005KT 26/20 A2971 RMK A01 T02600199  RH  069%=      5-min Rain = 0
KAHS 280348Z 16007KT 26/20 A2971 RMK A01 T02600199  RH  069%=      5-min Rain = 0
KAHS 280349Z 16007KT 26/20 A2971 RMK A01 T02590199  RH  069%=      5-min Rain = 0
KAHS 280350Z 16007KT 26/20 A2971 RMK A01 T02590199  RH  069%=      5-min Rain = 0
KAHS 280351Z 16008KT 26/20 A2971 RMK A01 T02590198  RH  069%=      5-min Rain = 0
KAHS 280352Z 17007KT 26/20 A2971 RMK A01 T02600198  RH  069%=      5-min Rain = 0
KAHS 280353Z 16006KT 26/20 A2971 RMK A01 T02590199  RH  069%=      5-min Rain = 0
KAHS 280354Z 17007KT 26/20 A2971 RMK A01 T02590199  RH  069%=      5-min Rain = 0
KAHS 280355Z 16006KT 26/20 A2971 RMK A01 T02580199  RH  070%=      5-min Rain = 0
KAHS 280356Z 16007KT 26/20 A2971 RMK A01 T02580199  RH  070%=      5-min Rain = 0
KAHS 280357Z 17006KT 26/20 A2971 RMK A01 T02580199  RH  070%=      5-min Rain = 0
KAHS 280358Z 16006KT 26/20 A2971 RMK A01 T02570199  RH  070%=      5-min Rain = 0
KAHS 280359Z 17008KT 26/20 A2971 RMK A01 T02570198  RH  070%=      5-min Rain = 0
KAHS 280400Z 16006KT 26/20 A2971 RMK A01 T02580199  RH  070%=      5-min Rain = 0
KAHS 280401Z 16007KT 26/20 A2971 RMK A01 T02570199  RH  070%=      5-min Rain = 0
KAHS 280402Z 17006KT 26/20 A2971 RMK A01 T02570198  RH  070%=      5-min Rain = 0
KAHS 280403Z 17009KT 26/20 A2971 RMK A01 T02570199  RH  070%=      5-min Rain = 0
KAHS 280404Z 16006KT 26/20 A2971 RMK A01 T02580198  RH  070%=      5-min Rain = 0
KAHS 280405Z 17004KT 26/20 A2971 RMK A01 T02570199  RH  070%=      5-min Rain = 0
KAHS 280406Z 16006KT 26/20 A2971 RMK A01 T02570199  RH  070%=      5-min Rain = 0
KAHS 280407Z 16007KT 26/20 A2971 RMK A01 T02560198  RH  070%=      5-min Rain = 0
KAHS 280408Z 16007KT 26/20 A2971 RMK A01 T02560199  RH  070%=      5-min Rain = 0
KAHS 280409Z 17008KT 26/20 A2971 RMK A01 T02570199  RH  070%=      5-min Rain = 0
KAHS 280410Z 17008KT 26/20 A2971 RMK A01 T02570199  RH  070%=      5-min Rain = 0
KAHS 280411Z 16008KT 26/20 A2971 RMK A01 T02560198  RH  070%=      5-min Rain = 0
KAHS 280412Z 17008KT 26/20 A2971 RMK A01 T02570199  RH  070%=      5-min Rain = 0
KAHS 280413Z 17008KT 26/20 A2971 RMK A01 T02580199  RH  070%=      5-min Rain = 0
KAHS 280414Z 17009KT 26/20 A2971 RMK A01 T02580199  RH  070%=      5-min Rain = 0
KAHS 280415Z 18009G14KT 26/20 A2971 RMK A01 T02580198  RH  069%=      5-min Rain = 0
KAHS 280416Z 16007KT 26/20 A2971 RMK A01 T02580199  RH  070%=      5-min Rain = 0
KAHS 280417Z 17009KT 26/20 A2971 RMK A01 T02580199  RH  070%=      5-min Rain = 0
KAHS 280418Z 16009KT 26/20 A2971 RMK A01 T02580199  RH  070%=      5-min Rain = 0
KAHS 280419Z 17010KT 26/20 A2971 RMK A01 T02580199  RH  070%=      5-min Rain = 0
KAHS 280420Z 17009KT 26/20 A2971 RMK A01 T02580199  RH  070%=      5-min Rain = 0
KAHS 280421Z 17007KT 26/20 A2971 RMK A01 T02580199  RH  070%=      5-min Rain = 0
KAHS 280422Z 17008KT 26/20 A2971 RMK A01 T02570199  RH  070%=      5-min Rain = 0
KAHS 280423Z 17010KT 26/20 A2971 RMK A01 T02570199  RH  070%=      5-min Rain = 0
KAHS 280424Z 17009KT 26/20 A2971 RMK A01 T02570199  RH  070%=      5-min Rain = 0
KAHS 280425Z 16009KT 26/20 A2971 RMK A01 T02580198  RH  070%=      5-min Rain = 0
KAHS 280426Z 17010KT 26/20 A2971 RMK A01 T02580199  RH  070%=      5-min Rain = 0
KAHS 280427Z 17011KT 26/20 A2971 RMK A01 T02580198  RH  070%=      5-min Rain = 0
KAHS 280428Z 17009KT 26/20 A2971 RMK A01 T02580199  RH  070%=      5-min Rain = 0
KAHS 280429Z 18008KT 26/20 A2971 RMK A01 T02580199  RH  070%=      5-min Rain = 0
KAHS 280430Z 17008KT 26/20 A2971 RMK A01 T02580199  RH  070%=      5-min Rain = 0
KAHS 280431Z 17009KT 26/20 A2971 RMK A01 T02570199  RH  070%=      5-min Rain = 0
KAHS 280432Z 17009G15KT 26/20 A2971 RMK A01 T02570198  RH  070%=      5-min Rain = 0
KAHS 280433Z 17008KT 26/20 A2971 RMK A01 T02570198  RH  070%=      5-min Rain = 0
KAHS 280434Z 18007KT 26/20 A2971 RMK A01 T02570198  RH  070%=      5-min Rain = 0
KAHS 280435Z 17011KT 26/20 A2971 RMK A01 T02570198  RH  070%=      5-min Rain = 0
KAHS 280436Z 17011KT 26/20 A2971 RMK A01 T02570198  RH  070%=      5-min Rain = 0
KAHS 280437Z 17010KT 26/20 A2971 RMK A01 T02580198  RH  070%=      5-min Rain = 0
KAHS 280438Z 17007KT 26/20 A2971 RMK A01 T02580198  RH  070%=      5-min Rain = 0
KAHS 280439Z 16009KT 26/20 A2971 RMK A01 T02570198  RH  070%=      5-min Rain = 0
KAHS 280440Z 17008KT 26/20 A2971 RMK A01 T02570198  RH  070%=      5-min Rain = 0
KAHS 280441Z 17009KT 26/20 A2971 RMK A01 T02560198  RH  070%=      5-min Rain = 0
KAHS 280442Z 18008KT 26/20 A2971 RMK A01 T02560198  RH  070%=      5-min Rain = 0
KAHS 280443Z 17013KT 26/20 A2971 RMK A01 T02560198  RH  070%=      5-min Rain = 0
KAHS 280444Z 17012KT 26/20 A2971 RMK A01 T02570198  RH  070%=      5-min Rain = 0
KAHS 280445Z 18011KT 26/20 A2971 RMK A01 T02570197  RH  070%=      5-min Rain = 0
KAHS 280446Z 17009KT 26/20 A2971 RMK A01 T02570198  RH  070%=      5-min Rain = 0
KAHS 280447Z 18010G15KT 26/20 A2971 RMK A01 T02570198  RH  070%=      5-min Rain = 0
KAHS 280448Z 18010KT 26/20 A2971 RMK A01 T02560198  RH  070%=      5-min Rain = 0
KAHS 280449Z 18010KT 26/20 A2971 RMK A01 T02560198  RH  070%=      5-min Rain = 0
KAHS 280450Z 17008KT 26/20 A2971 RMK A01 T02560198  RH  070%=      5-min Rain = 0
KAHS 280451Z 17010KT 26/20 A2971 RMK A01 T02550198  RH  071%=      5-min Rain = 0
KAHS 280452Z 18010KT 26/20 A2971 RMK A01 T02550198  RH  071%=      5-min Rain = 0
KAHS 280453Z 17010KT 26/20 A2971 RMK A01 T02550198  RH  071%=      5-min Rain = 0
KAHS 280454Z 18011KT 26/20 A2971 RMK A01 T02550198  RH  070%=      5-min Rain = 0
KAHS 280455Z 17010KT 26/20 A2971 RMK A01 T02550198  RH  071%=      5-min Rain = 0
KAHS 280456Z 18011KT 26/20 A2971 RMK A01 T02550198  RH  071%=      5-min Rain = 0
KAHS 280457Z 18009KT 26/20 A2971 RMK A01 T02550198  RH  071%=      5-min Rain = 0
KAHS 280458Z 17007KT 26/20 A2971 RMK A01 T02550198  RH  071%=      5-min Rain = 0
KAHS 280459Z 17009KT 25/20 A2971 RMK A01 T02540197  RH  071%=      5-min Rain = 0

Page generated in 0.1211 seconds.